<?xml version="1.0" encoding="UTF-8" standalone="no" ?>
<gpx xmlns="http://www.topografix.com/GPX/1/1" xmlns:xsi="http://www.w3.org/2001/XMLSchema-instance" xsi:schemaLocation="http://www.topografix.com/GPX/1/1 http://www.topografix.com/GPX/1/1/gpx.xsd" version="1.1" creator="VisuGPX - https://www.visugpx.com">
  <metadata>
    <name>7-5 PM Montbrun (pont) à Le Ceret par Prunets</name>
  </metadata>
  <trk>
    <name><![CDATA[10809997-7-5 La Rochette à Le Ceret par Tomple]]></name>
    <trkseg>
      <trkpt lat="44.33333" lon="3.49739">
        <ele>502</ele>
        <time>2020-01-04T20:19:51Z</time>
      </trkpt>
      <trkpt lat="44.33314" lon="3.4973">
        <ele>504</ele>
        <time>2020-01-04T20:19:55Z</time>
      </trkpt>
      <trkpt lat="44.33295" lon="3.49717">
        <ele>505</ele>
        <time>2020-01-04T20:20:00Z</time>
      </trkpt>
      <trkpt lat="44.33284" lon="3.49706">
        <ele>504</ele>
        <time>2020-01-04T20:20:03Z</time>
      </trkpt>
      <trkpt lat="44.3323" lon="3.49679">
        <ele>512</ele>
        <time>2020-01-04T20:20:17Z</time>
      </trkpt>
      <trkpt lat="44.33198" lon="3.49651">
        <ele>522</ele>
        <time>2020-01-04T20:20:26Z</time>
      </trkpt>
      <trkpt lat="44.33187" lon="3.49623">
        <ele>522</ele>
        <time>2020-01-04T20:20:31Z</time>
      </trkpt>
      <trkpt lat="44.33161" lon="3.49576">
        <ele>529</ele>
        <time>2020-01-04T20:20:41Z</time>
      </trkpt>
      <trkpt lat="44.33161" lon="3.49545">
        <ele>529</ele>
        <time>2020-01-04T20:20:46Z</time>
      </trkpt>
      <trkpt lat="44.33172" lon="3.4953">
        <ele>522</ele>
        <time>2020-01-04T20:20:50Z</time>
      </trkpt>
      <trkpt lat="44.33185" lon="3.4949">
        <ele>518</ele>
        <time>2020-01-04T20:20:57Z</time>
      </trkpt>
      <trkpt lat="44.33183" lon="3.49458">
        <ele>522</ele>
        <time>2020-01-04T20:21:02Z</time>
      </trkpt>
      <trkpt lat="44.33194" lon="3.49425">
        <ele>520</ele>
        <time>2020-01-04T20:21:08Z</time>
      </trkpt>
      <trkpt lat="44.33207" lon="3.49389">
        <ele>522</ele>
        <time>2020-01-04T20:21:15Z</time>
      </trkpt>
      <trkpt lat="44.33228" lon="3.49361">
        <ele>518</ele>
        <time>2020-01-04T20:21:22Z</time>
      </trkpt>
      <trkpt lat="44.33254" lon="3.49314">
        <ele>520</ele>
        <time>2020-01-04T20:21:32Z</time>
      </trkpt>
      <trkpt lat="44.33277" lon="3.4929">
        <ele>523</ele>
        <time>2020-01-04T20:21:38Z</time>
      </trkpt>
      <trkpt lat="44.33307" lon="3.49271">
        <ele>518</ele>
        <time>2020-01-04T20:21:46Z</time>
      </trkpt>
      <trkpt lat="44.33361" lon="3.49221">
        <ele>517</ele>
        <time>2020-01-04T20:22:01Z</time>
      </trkpt>
      <trkpt lat="44.33445" lon="3.49136">
        <ele>512</ele>
        <time>2020-01-04T20:22:25Z</time>
      </trkpt>
      <trkpt lat="44.33455" lon="3.49118">
        <ele>512</ele>
        <time>2020-01-04T20:22:29Z</time>
      </trkpt>
      <trkpt lat="44.33451" lon="3.49103">
        <ele>516</ele>
        <time>2020-01-04T20:22:32Z</time>
      </trkpt>
      <trkpt lat="44.33428" lon="3.49065">
        <ele>521</ele>
        <time>2020-01-04T20:22:40Z</time>
      </trkpt>
      <trkpt lat="44.33378" lon="3.49015">
        <ele>530</ele>
        <time>2020-01-04T20:22:55Z</time>
      </trkpt>
      <trkpt lat="44.33346" lon="3.48964">
        <ele>528</ele>
        <time>2020-01-04T20:23:06Z</time>
      </trkpt>
      <trkpt lat="44.33333" lon="3.48932">
        <ele>523</ele>
        <time>2020-01-04T20:23:12Z</time>
      </trkpt>
      <trkpt lat="44.33295" lon="3.48904">
        <ele>533</ele>
        <time>2020-01-04T20:23:22Z</time>
      </trkpt>
      <trkpt lat="44.3328" lon="3.48887">
        <ele>536</ele>
        <time>2020-01-04T20:23:27Z</time>
      </trkpt>
      <trkpt lat="44.33271" lon="3.4887">
        <ele>537</ele>
        <time>2020-01-04T20:23:30Z</time>
      </trkpt>
      <trkpt lat="44.33275" lon="3.48857">
        <ele>533</ele>
        <time>2020-01-04T20:23:33Z</time>
      </trkpt>
      <trkpt lat="44.33286" lon="3.4884">
        <ele>526</ele>
        <time>2020-01-04T20:23:36Z</time>
      </trkpt>
      <trkpt lat="44.33297" lon="3.48809">
        <ele>519</ele>
        <time>2020-01-04T20:23:42Z</time>
      </trkpt>
      <trkpt lat="44.33297" lon="3.48777">
        <ele>517</ele>
        <time>2020-01-04T20:23:48Z</time>
      </trkpt>
      <trkpt lat="44.33286" lon="3.48745">
        <ele>521</ele>
        <time>2020-01-04T20:23:53Z</time>
      </trkpt>
      <trkpt lat="44.33275" lon="3.48722">
        <ele>526</ele>
        <time>2020-01-04T20:23:58Z</time>
      </trkpt>
      <trkpt lat="44.3328" lon="3.48661">
        <ele>523</ele>
        <time>2020-01-04T20:24:08Z</time>
      </trkpt>
      <trkpt lat="44.33275" lon="3.48601">
        <ele>527</ele>
        <time>2020-01-04T20:24:18Z</time>
      </trkpt>
      <trkpt lat="44.33275" lon="3.48548">
        <ele>526</ele>
        <time>2020-01-04T20:24:27Z</time>
      </trkpt>
      <trkpt lat="44.33292" lon="3.48498">
        <ele>513</ele>
        <time>2020-01-04T20:24:37Z</time>
      </trkpt>
      <trkpt lat="44.33295" lon="3.4843">
        <ele>518</ele>
        <time>2020-01-04T20:24:48Z</time>
      </trkpt>
      <trkpt lat="44.33305" lon="3.48387">
        <ele>518</ele>
        <time>2020-01-04T20:24:55Z</time>
      </trkpt>
      <trkpt lat="44.3332" lon="3.4834">
        <ele>515</ele>
        <time>2020-01-04T20:25:04Z</time>
      </trkpt>
      <trkpt lat="44.33337" lon="3.48303">
        <ele>510</ele>
        <time>2020-01-04T20:25:11Z</time>
      </trkpt>
      <trkpt lat="44.33387" lon="3.48234">
        <ele>505</ele>
        <time>2020-01-04T20:25:28Z</time>
      </trkpt>
      <trkpt lat="44.33419" lon="3.48153">
        <ele>502</ele>
        <time>2020-01-04T20:25:43Z</time>
      </trkpt>
      <trkpt lat="44.33428" lon="3.48106">
        <ele>502</ele>
        <time>2020-01-04T20:25:51Z</time>
      </trkpt>
      <trkpt lat="44.33438" lon="3.48016">
        <ele>500</ele>
        <time>2020-01-04T20:26:07Z</time>
      </trkpt>
      <trkpt lat="44.33438" lon="3.47745">
        <ele>508</ele>
        <time>2020-01-04T20:26:52Z</time>
      </trkpt>
      <trkpt lat="44.33524" lon="3.47554">
        <ele>511</ele>
        <time>2020-01-04T20:27:30Z</time>
      </trkpt>
      <trkpt lat="44.33528" lon="3.47533">
        <ele>511</ele>
        <time>2020-01-04T20:27:33Z</time>
      </trkpt>
      <trkpt lat="44.33513" lon="3.47498">
        <ele>519</ele>
        <time>2020-01-04T20:27:40Z</time>
      </trkpt>
      <trkpt lat="44.33488" lon="3.47456">
        <ele>530</ele>
        <time>2020-01-04T20:27:49Z</time>
      </trkpt>
      <trkpt lat="44.33479" lon="3.4743">
        <ele>533</ele>
        <time>2020-01-04T20:27:54Z</time>
      </trkpt>
      <trkpt lat="44.33486" lon="3.47415">
        <ele>530</ele>
        <time>2020-01-04T20:27:57Z</time>
      </trkpt>
      <trkpt lat="44.33535" lon="3.47421">
        <ele>519</ele>
        <time>2020-01-04T20:28:08Z</time>
      </trkpt>
      <trkpt lat="44.33554" lon="3.47421">
        <ele>516</ele>
        <time>2020-01-04T20:28:13Z</time>
      </trkpt>
      <trkpt lat="44.33573" lon="3.47413">
        <ele>514</ele>
        <time>2020-01-04T20:28:18Z</time>
      </trkpt>
      <trkpt lat="44.33584" lon="3.47391">
        <ele>517</ele>
        <time>2020-01-04T20:28:22Z</time>
      </trkpt>
      <trkpt lat="44.33629" lon="3.4725">
        <ele>520</ele>
        <time>2020-01-04T20:28:48Z</time>
      </trkpt>
      <trkpt lat="44.33638" lon="3.47207">
        <ele>519</ele>
        <time>2020-01-04T20:28:55Z</time>
      </trkpt>
      <trkpt lat="44.33642" lon="3.47149">
        <ele>521</ele>
        <time>2020-01-04T20:29:05Z</time>
      </trkpt>
      <trkpt lat="44.33655" lon="3.47063">
        <ele>523</ele>
        <time>2020-01-04T20:29:20Z</time>
      </trkpt>
      <trkpt lat="44.33698" lon="3.46923">
        <ele>528</ele>
        <time>2020-01-04T20:29:45Z</time>
      </trkpt>
      <trkpt lat="44.33719" lon="3.46889">
        <ele>528</ele>
        <time>2020-01-04T20:29:53Z</time>
      </trkpt>
      <trkpt lat="44.33743" lon="3.46883">
        <ele>517</ele>
        <time>2020-01-04T20:29:58Z</time>
      </trkpt>
      <trkpt lat="44.33764" lon="3.46865">
        <ele>516</ele>
        <time>2020-01-04T20:30:04Z</time>
      </trkpt>
      <trkpt lat="44.33777" lon="3.46842">
        <ele>519</ele>
        <time>2020-01-04T20:30:09Z</time>
      </trkpt>
      <trkpt lat="44.3382" lon="3.46792">
        <ele>512</ele>
        <time>2020-01-04T20:30:22Z</time>
      </trkpt>
      <trkpt lat="44.33848" lon="3.4678">
        <ele>503</ele>
        <time>2020-01-04T20:30:29Z</time>
      </trkpt>
      <trkpt lat="44.33867" lon="3.46756">
        <ele>502</ele>
        <time>2020-01-04T20:30:35Z</time>
      </trkpt>
      <trkpt lat="44.33872" lon="3.46728">
        <ele>503</ele>
        <time>2020-01-04T20:30:40Z</time>
      </trkpt>
      <trkpt lat="44.3387" lon="3.46659">
        <ele>512</ele>
        <time>2020-01-04T20:30:51Z</time>
      </trkpt>
      <trkpt lat="44.33882" lon="3.46619">
        <ele>510</ele>
        <time>2020-01-04T20:30:58Z</time>
      </trkpt>
      <trkpt lat="44.33904" lon="3.46599">
        <ele>501</ele>
        <time>2020-01-04T20:31:05Z</time>
      </trkpt>
      <trkpt lat="44.33923" lon="3.46586">
        <ele>495</ele>
        <time>2020-01-04T20:31:10Z</time>
      </trkpt>
      <trkpt lat="44.33938" lon="3.46565">
        <ele>497</ele>
        <time>2020-01-04T20:31:14Z</time>
      </trkpt>
      <trkpt lat="44.33949" lon="3.46535">
        <ele>500</ele>
        <time>2020-01-04T20:31:20Z</time>
      </trkpt>
      <trkpt lat="44.33962" lon="3.46486">
        <ele>506</ele>
        <time>2020-01-04T20:31:29Z</time>
      </trkpt>
      <trkpt lat="44.3397" lon="3.46471">
        <ele>507</ele>
        <time>2020-01-04T20:31:32Z</time>
      </trkpt>
      <trkpt lat="44.33996" lon="3.46453">
        <ele>501</ele>
        <time>2020-01-04T20:31:39Z</time>
      </trkpt>
      <trkpt lat="44.34009" lon="3.46451">
        <ele>499</ele>
        <time>2020-01-04T20:31:42Z</time>
      </trkpt>
      <trkpt lat="44.34022" lon="3.46443">
        <ele>498</ele>
        <time>2020-01-04T20:31:45Z</time>
      </trkpt>
      <trkpt lat="44.3405" lon="3.46441">
        <ele>493</ele>
        <time>2020-01-04T20:31:52Z</time>
      </trkpt>
      <trkpt lat="44.34058" lon="3.46436">
        <ele>492</ele>
        <time>2020-01-04T20:31:54Z</time>
      </trkpt>
      <trkpt lat="44.34078" lon="3.46432">
        <ele>488</ele>
        <time>2020-01-04T20:31:58Z</time>
      </trkpt>
      <trkpt lat="44.34088" lon="3.46413">
        <ele>488</ele>
        <time>2020-01-04T20:32:02Z</time>
      </trkpt>
      <trkpt lat="44.34084" lon="3.46395">
        <ele>490</ele>
        <time>2020-01-04T20:32:06Z</time>
      </trkpt>
      <trkpt lat="44.34061" lon="3.4637">
        <ele>496</ele>
        <time>2020-01-04T20:32:12Z</time>
      </trkpt>
      <trkpt lat="44.34063" lon="3.46365">
        <ele>496</ele>
        <time>2020-01-04T20:32:13Z</time>
      </trkpt>
      <trkpt lat="44.34073" lon="3.46359">
        <ele>495</ele>
        <time>2020-01-04T20:32:16Z</time>
      </trkpt>
      <trkpt lat="44.34078" lon="3.46353">
        <ele>494</ele>
        <time>2020-01-04T20:32:17Z</time>
      </trkpt>
      <trkpt lat="44.34078" lon="3.46335">
        <ele>496</ele>
        <time>2020-01-04T20:32:20Z</time>
      </trkpt>
      <trkpt lat="44.34082" lon="3.46329">
        <ele>497</ele>
        <time>2020-01-04T20:32:22Z</time>
      </trkpt>
      <trkpt lat="44.34095" lon="3.46329">
        <ele>499</ele>
        <time>2020-01-04T20:32:25Z</time>
      </trkpt>
      <trkpt lat="44.34101" lon="3.46327">
        <ele>501</ele>
        <time>2020-01-04T20:32:26Z</time>
      </trkpt>
      <trkpt lat="44.34108" lon="3.4632">
        <ele>505</ele>
        <time>2020-01-04T20:32:28Z</time>
      </trkpt>
      <trkpt lat="44.34121" lon="3.46316">
        <ele>509</ele>
        <time>2020-01-04T20:32:31Z</time>
      </trkpt>
      <trkpt lat="44.3414" lon="3.4632">
        <ele>511</ele>
        <time>2020-01-04T20:32:36Z</time>
      </trkpt>
      <trkpt lat="44.34151" lon="3.46333">
        <ele>507</ele>
        <time>2020-01-04T20:32:39Z</time>
      </trkpt>
      <trkpt lat="44.34159" lon="3.46335">
        <ele>508</ele>
        <time>2020-01-04T20:32:41Z</time>
      </trkpt>
      <trkpt lat="44.34166" lon="3.4634">
        <ele>508</ele>
        <time>2020-01-04T20:32:43Z</time>
      </trkpt>
      <trkpt lat="44.34172" lon="3.46346">
        <ele>507</ele>
        <time>2020-01-04T20:32:45Z</time>
      </trkpt>
      <trkpt lat="44.34174" lon="3.46357">
        <ele>503</ele>
        <time>2020-01-04T20:32:47Z</time>
      </trkpt>
      <trkpt lat="44.34179" lon="3.46357">
        <ele>504</ele>
        <time>2020-01-04T20:32:48Z</time>
      </trkpt>
      <trkpt lat="44.34179" lon="3.46333">
        <ele>512</ele>
        <time>2020-01-04T20:32:52Z</time>
      </trkpt>
      <trkpt lat="44.34183" lon="3.46333">
        <ele>513</ele>
        <time>2020-01-04T20:32:53Z</time>
      </trkpt>
      <trkpt lat="44.34196" lon="3.46346">
        <ele>510</ele>
        <time>2020-01-04T20:32:56Z</time>
      </trkpt>
      <trkpt lat="44.34213" lon="3.46346">
        <ele>513</ele>
        <time>2020-01-04T20:33:00Z</time>
      </trkpt>
      <trkpt lat="44.34222" lon="3.4634">
        <ele>516</ele>
        <time>2020-01-04T20:33:03Z</time>
      </trkpt>
      <trkpt lat="44.34219" lon="3.46335">
        <ele>518</ele>
        <time>2020-01-04T20:33:04Z</time>
      </trkpt>
      <trkpt lat="44.34206" lon="3.46327">
        <ele>520</ele>
        <time>2020-01-04T20:33:07Z</time>
      </trkpt>
      <trkpt lat="44.342" lon="3.46318">
        <ele>523</ele>
        <time>2020-01-04T20:33:09Z</time>
      </trkpt>
      <trkpt lat="44.34228" lon="3.46316">
        <ele>528</ele>
        <time>2020-01-04T20:33:16Z</time>
      </trkpt>
      <trkpt lat="44.34241" lon="3.46312">
        <ele>533</ele>
        <time>2020-01-04T20:33:19Z</time>
      </trkpt>
      <trkpt lat="44.34258" lon="3.46301">
        <ele>539</ele>
        <time>2020-01-04T20:33:23Z</time>
      </trkpt>
      <trkpt lat="44.34279" lon="3.46284">
        <ele>546</ele>
        <time>2020-01-04T20:33:29Z</time>
      </trkpt>
      <trkpt lat="44.34303" lon="3.4626">
        <ele>556</ele>
        <time>2020-01-04T20:33:36Z</time>
      </trkpt>
      <trkpt lat="44.34325" lon="3.46245">
        <ele>562</ele>
        <time>2020-01-04T20:33:41Z</time>
      </trkpt>
      <trkpt lat="44.3432" lon="3.46241">
        <ele>564</ele>
        <time>2020-01-04T20:33:43Z</time>
      </trkpt>
      <trkpt lat="44.34282" lon="3.46254">
        <ele>560</ele>
        <time>2020-01-04T20:33:52Z</time>
      </trkpt>
      <trkpt lat="44.34234" lon="3.4626">
        <ele>556</ele>
        <time>2020-01-04T20:34:03Z</time>
      </trkpt>
      <trkpt lat="44.34228" lon="3.46256">
        <ele>557</ele>
        <time>2020-01-04T20:34:05Z</time>
      </trkpt>
      <trkpt lat="44.3423" lon="3.4625">
        <ele>560</ele>
        <time>2020-01-04T20:34:06Z</time>
      </trkpt>
      <trkpt lat="44.34258" lon="3.46245">
        <ele>566</ele>
        <time>2020-01-04T20:34:12Z</time>
      </trkpt>
      <trkpt lat="44.34284" lon="3.46232">
        <ele>571</ele>
        <time>2020-01-04T20:34:19Z</time>
      </trkpt>
      <trkpt lat="44.34318" lon="3.46209">
        <ele>581</ele>
        <time>2020-01-04T20:34:28Z</time>
      </trkpt>
      <trkpt lat="44.3435" lon="3.46215">
        <ele>574</ele>
        <time>2020-01-04T20:34:35Z</time>
      </trkpt>
      <trkpt lat="44.34363" lon="3.46213">
        <ele>572</ele>
        <time>2020-01-04T20:34:38Z</time>
      </trkpt>
      <trkpt lat="44.34372" lon="3.46207">
        <ele>574</ele>
        <time>2020-01-04T20:34:41Z</time>
      </trkpt>
      <trkpt lat="44.34447" lon="3.46127">
        <ele>595</ele>
        <time>2020-01-04T20:35:03Z</time>
      </trkpt>
      <trkpt lat="44.34505" lon="3.46059">
        <ele>602</ele>
        <time>2020-01-04T20:35:20Z</time>
      </trkpt>
      <trkpt lat="44.34522" lon="3.46029">
        <ele>608</ele>
        <time>2020-01-04T20:35:27Z</time>
      </trkpt>
      <trkpt lat="44.34541" lon="3.46016">
        <ele>606</ele>
        <time>2020-01-04T20:35:32Z</time>
      </trkpt>
      <trkpt lat="44.34571" lon="3.45981">
        <ele>608</ele>
        <time>2020-01-04T20:35:41Z</time>
      </trkpt>
      <trkpt lat="44.34621" lon="3.45891">
        <ele>617</ele>
        <time>2020-01-04T20:36:00Z</time>
      </trkpt>
      <trkpt lat="44.34627" lon="3.4584">
        <ele>627</ele>
        <time>2020-01-04T20:36:08Z</time>
      </trkpt>
      <trkpt lat="44.34627" lon="3.45803">
        <ele>628</ele>
        <time>2020-01-04T20:36:15Z</time>
      </trkpt>
      <trkpt lat="44.34614" lon="3.45745">
        <ele>634</ele>
        <time>2020-01-04T20:36:25Z</time>
      </trkpt>
      <trkpt lat="44.34565" lon="3.45655">
        <ele>655</ele>
        <time>2020-01-04T20:36:44Z</time>
      </trkpt>
      <trkpt lat="44.34556" lon="3.45599">
        <ele>658</ele>
        <time>2020-01-04T20:36:53Z</time>
      </trkpt>
      <trkpt lat="44.34569" lon="3.45499">
        <ele>655</ele>
        <time>2020-01-04T20:37:10Z</time>
      </trkpt>
      <trkpt lat="44.34573" lon="3.45449">
        <ele>662</ele>
        <time>2020-01-04T20:37:19Z</time>
      </trkpt>
      <trkpt lat="44.34576" lon="3.45391">
        <ele>673</ele>
        <time>2020-01-04T20:37:28Z</time>
      </trkpt>
      <trkpt lat="44.34569" lon="3.45376">
        <ele>680</ele>
        <time>2020-01-04T20:37:31Z</time>
      </trkpt>
      <trkpt lat="44.34556" lon="3.45398">
        <ele>681</ele>
        <time>2020-01-04T20:37:36Z</time>
      </trkpt>
      <trkpt lat="44.34515" lon="3.45567">
        <ele>690</ele>
        <time>2020-01-04T20:38:06Z</time>
      </trkpt>
      <trkpt lat="44.34513" lon="3.45666">
        <ele>695</ele>
        <time>2020-01-04T20:38:22Z</time>
      </trkpt>
      <trkpt lat="44.34526" lon="3.45739">
        <ele>694</ele>
        <time>2020-01-04T20:38:35Z</time>
      </trkpt>
      <trkpt lat="44.34526" lon="3.45784">
        <ele>693</ele>
        <time>2020-01-04T20:38:43Z</time>
      </trkpt>
      <trkpt lat="44.3452" lon="3.4582">
        <ele>694</ele>
        <time>2020-01-04T20:38:49Z</time>
      </trkpt>
      <trkpt lat="44.34421" lon="3.45883">
        <ele>721</ele>
        <time>2020-01-04T20:39:14Z</time>
      </trkpt>
      <trkpt lat="44.34372" lon="3.45908">
        <ele>723</ele>
        <time>2020-01-04T20:39:26Z</time>
      </trkpt>
      <trkpt lat="44.34331" lon="3.45917">
        <ele>729</ele>
        <time>2020-01-04T20:39:36Z</time>
      </trkpt>
      <trkpt lat="44.34292" lon="3.45915">
        <ele>731</ele>
        <time>2020-01-04T20:39:45Z</time>
      </trkpt>
      <trkpt lat="44.34277" lon="3.45911">
        <ele>733</ele>
        <time>2020-01-04T20:39:49Z</time>
      </trkpt>
      <trkpt lat="44.34237" lon="3.45911">
        <ele>732</ele>
        <time>2020-01-04T20:39:58Z</time>
      </trkpt>
      <trkpt lat="44.34206" lon="3.45906">
        <ele>730</ele>
        <time>2020-01-04T20:40:05Z</time>
      </trkpt>
      <trkpt lat="44.34166" lon="3.45891">
        <ele>731</ele>
        <time>2020-01-04T20:40:15Z</time>
      </trkpt>
      <trkpt lat="44.34131" lon="3.4587">
        <ele>729</ele>
        <time>2020-01-04T20:40:24Z</time>
      </trkpt>
      <trkpt lat="44.34116" lon="3.45848">
        <ele>733</ele>
        <time>2020-01-04T20:40:29Z</time>
      </trkpt>
      <trkpt lat="44.34106" lon="3.45808">
        <ele>745</ele>
        <time>2020-01-04T20:40:36Z</time>
      </trkpt>
      <trkpt lat="44.3408" lon="3.45765">
        <ele>752</ele>
        <time>2020-01-04T20:40:45Z</time>
      </trkpt>
      <trkpt lat="44.34" lon="3.45668">
        <ele>768</ele>
        <time>2020-01-04T20:41:10Z</time>
      </trkpt>
      <trkpt lat="44.3399" lon="3.45638">
        <ele>780</ele>
        <time>2020-01-04T20:41:16Z</time>
      </trkpt>
      <trkpt lat="44.33968" lon="3.45636">
        <ele>784</ele>
        <time>2020-01-04T20:41:21Z</time>
      </trkpt>
      <trkpt lat="44.33947" lon="3.45653">
        <ele>781</ele>
        <time>2020-01-04T20:41:26Z</time>
      </trkpt>
      <trkpt lat="44.3393" lon="3.45659">
        <ele>781</ele>
        <time>2020-01-04T20:41:31Z</time>
      </trkpt>
      <trkpt lat="44.33891" lon="3.45653">
        <ele>795</ele>
        <time>2020-01-04T20:41:40Z</time>
      </trkpt>
      <trkpt lat="44.33882" lon="3.45681">
        <ele>789</ele>
        <time>2020-01-04T20:41:45Z</time>
      </trkpt>
      <trkpt lat="44.33865" lon="3.457">
        <ele>790</ele>
        <time>2020-01-04T20:41:50Z</time>
      </trkpt>
      <trkpt lat="44.33848" lon="3.45702">
        <ele>798</ele>
        <time>2020-01-04T20:41:54Z</time>
      </trkpt>
      <trkpt lat="44.33829" lon="3.45717">
        <ele>802</ele>
        <time>2020-01-04T20:41:59Z</time>
      </trkpt>
      <trkpt lat="44.33827" lon="3.45743">
        <ele>796</ele>
        <time>2020-01-04T20:42:03Z</time>
      </trkpt>
      <trkpt lat="44.33829" lon="3.45778">
        <ele>787</ele>
        <time>2020-01-04T20:42:09Z</time>
      </trkpt>
      <trkpt lat="44.33816" lon="3.45801">
        <ele>787</ele>
        <time>2020-01-04T20:42:14Z</time>
      </trkpt>
      <trkpt lat="44.33797" lon="3.45825">
        <ele>787</ele>
        <time>2020-01-04T20:42:20Z</time>
      </trkpt>
      <trkpt lat="44.33775" lon="3.45838">
        <ele>789</ele>
        <time>2020-01-04T20:42:26Z</time>
      </trkpt>
      <trkpt lat="44.33749" lon="3.45846">
        <ele>793</ele>
        <time>2020-01-04T20:42:32Z</time>
      </trkpt>
      <trkpt lat="44.33734" lon="3.45846">
        <ele>794</ele>
        <time>2020-01-04T20:42:35Z</time>
      </trkpt>
      <trkpt lat="44.33681" lon="3.45808">
        <ele>816</ele>
        <time>2020-01-04T20:42:49Z</time>
      </trkpt>
      <trkpt lat="44.33653" lon="3.4581">
        <ele>821</ele>
        <time>2020-01-04T20:42:56Z</time>
      </trkpt>
      <trkpt lat="44.33612" lon="3.45831">
        <ele>828</ele>
        <time>2020-01-04T20:43:06Z</time>
      </trkpt>
      <trkpt lat="44.33599" lon="3.45853">
        <ele>829</ele>
        <time>2020-01-04T20:43:11Z</time>
      </trkpt>
      <trkpt lat="44.33591" lon="3.45883">
        <ele>828</ele>
        <time>2020-01-04T20:43:16Z</time>
      </trkpt>
      <trkpt lat="44.33584" lon="3.45896">
        <ele>830</ele>
        <time>2020-01-04T20:43:19Z</time>
      </trkpt>
      <trkpt lat="44.33586" lon="3.45951">
        <ele>826</ele>
        <time>2020-01-04T20:43:28Z</time>
      </trkpt>
      <trkpt lat="44.33582" lon="3.45996">
        <ele>828</ele>
        <time>2020-01-04T20:43:36Z</time>
      </trkpt>
      <trkpt lat="44.33567" lon="3.46033">
        <ele>832</ele>
        <time>2020-01-04T20:43:43Z</time>
      </trkpt>
      <trkpt lat="44.33548" lon="3.46071">
        <ele>838</ele>
        <time>2020-01-04T20:43:51Z</time>
      </trkpt>
      <trkpt lat="44.33524" lon="3.46104">
        <ele>840</ele>
        <time>2020-01-04T20:43:58Z</time>
      </trkpt>
      <trkpt lat="44.33496" lon="3.46136">
        <ele>842</ele>
        <time>2020-01-04T20:44:07Z</time>
      </trkpt>
      <trkpt lat="44.33481" lon="3.46162">
        <ele>840</ele>
        <time>2020-01-04T20:44:12Z</time>
      </trkpt>
      <trkpt lat="44.3346" lon="3.46172">
        <ele>849</ele>
        <time>2020-01-04T20:44:18Z</time>
      </trkpt>
      <trkpt lat="44.3341" lon="3.46235">
        <ele>860</ele>
        <time>2020-01-04T20:44:33Z</time>
      </trkpt>
      <trkpt lat="44.33398" lon="3.4626">
        <ele>860</ele>
        <time>2020-01-04T20:44:38Z</time>
      </trkpt>
      <trkpt lat="44.33395" lon="3.4628">
        <ele>860</ele>
        <time>2020-01-04T20:44:42Z</time>
      </trkpt>
      <trkpt lat="44.33415" lon="3.46295">
        <ele>852</ele>
        <time>2020-01-04T20:44:47Z</time>
      </trkpt>
      <trkpt lat="44.33425" lon="3.4631">
        <ele>846</ele>
        <time>2020-01-04T20:44:50Z</time>
      </trkpt>
      <trkpt lat="44.33425" lon="3.46357">
        <ele>843</ele>
        <time>2020-01-04T20:44:58Z</time>
      </trkpt>
      <trkpt lat="44.33404" lon="3.46432">
        <ele>847</ele>
        <time>2020-01-04T20:45:12Z</time>
      </trkpt>
      <trkpt lat="44.33391" lon="3.46447">
        <ele>851</ele>
        <time>2020-01-04T20:45:16Z</time>
      </trkpt>
      <trkpt lat="44.33385" lon="3.46449">
        <ele>854</ele>
        <time>2020-01-04T20:45:17Z</time>
      </trkpt>
      <trkpt lat="44.33376" lon="3.46441">
        <ele>860</ele>
        <time>2020-01-04T20:45:20Z</time>
      </trkpt>
      <trkpt lat="44.33391" lon="3.46413">
        <ele>858</ele>
        <time>2020-01-04T20:45:26Z</time>
      </trkpt>
      <trkpt lat="44.334" lon="3.4638">
        <ele>855</ele>
        <time>2020-01-04T20:45:31Z</time>
      </trkpt>
      <trkpt lat="44.33402" lon="3.46359">
        <ele>855</ele>
        <time>2020-01-04T20:45:35Z</time>
      </trkpt>
      <trkpt lat="44.334" lon="3.46335">
        <ele>857</ele>
        <time>2020-01-04T20:45:39Z</time>
      </trkpt>
      <trkpt lat="44.33387" lon="3.46327">
        <ele>862</ele>
        <time>2020-01-04T20:45:42Z</time>
      </trkpt>
      <trkpt lat="44.33376" lon="3.46327">
        <ele>867</ele>
        <time>2020-01-04T20:45:45Z</time>
      </trkpt>
      <trkpt lat="44.3337" lon="3.46323">
        <ele>869</ele>
        <time>2020-01-04T20:45:46Z</time>
      </trkpt>
      <trkpt lat="44.33344" lon="3.4629">
        <ele>878</ele>
        <time>2020-01-04T20:45:55Z</time>
      </trkpt>
      <trkpt lat="44.33329" lon="3.4628">
        <ele>883</ele>
        <time>2020-01-04T20:45:59Z</time>
      </trkpt>
      <trkpt lat="44.33299" lon="3.46247">
        <ele>891</ele>
        <time>2020-01-04T20:46:07Z</time>
      </trkpt>
      <trkpt lat="44.33297" lon="3.46235">
        <ele>894</ele>
        <time>2020-01-04T20:46:09Z</time>
      </trkpt>
      <trkpt lat="44.33303" lon="3.4622">
        <ele>895</ele>
        <time>2020-01-04T20:46:12Z</time>
      </trkpt>
      <trkpt lat="44.33318" lon="3.46215">
        <ele>892</ele>
        <time>2020-01-04T20:46:16Z</time>
      </trkpt>
      <trkpt lat="44.33346" lon="3.46198">
        <ele>889</ele>
        <time>2020-01-04T20:46:23Z</time>
      </trkpt>
      <trkpt lat="44.33355" lon="3.46189">
        <ele>889</ele>
        <time>2020-01-04T20:46:26Z</time>
      </trkpt>
      <trkpt lat="44.33365" lon="3.4617">
        <ele>891</ele>
        <time>2020-01-04T20:46:30Z</time>
      </trkpt>
      <trkpt lat="44.33398" lon="3.46087">
        <ele>903</ele>
        <time>2020-01-04T20:46:45Z</time>
      </trkpt>
      <trkpt lat="44.33423" lon="3.46007">
        <ele>910</ele>
        <time>2020-01-04T20:47:00Z</time>
      </trkpt>
      <trkpt lat="44.3344" lon="3.45966">
        <ele>909</ele>
        <time>2020-01-04T20:47:08Z</time>
      </trkpt>
      <trkpt lat="44.33447" lon="3.45943">
        <ele>909</ele>
        <time>2020-01-04T20:47:12Z</time>
      </trkpt>
      <trkpt lat="44.33449" lon="3.45919">
        <ele>911</ele>
        <time>2020-01-04T20:47:16Z</time>
      </trkpt>
      <trkpt lat="44.33447" lon="3.45915">
        <ele>913</ele>
        <time>2020-01-04T20:47:17Z</time>
      </trkpt>
      <trkpt lat="44.3344" lon="3.45917">
        <ele>916</ele>
        <time>2020-01-04T20:47:19Z</time>
      </trkpt>
      <trkpt lat="44.3343" lon="3.45947">
        <ele>917</ele>
        <time>2020-01-04T20:47:24Z</time>
      </trkpt>
      <trkpt lat="44.33421" lon="3.45958">
        <ele>919</ele>
        <time>2020-01-04T20:47:27Z</time>
      </trkpt>
      <trkpt lat="44.33408" lon="3.45968">
        <ele>921</ele>
        <time>2020-01-04T20:47:30Z</time>
      </trkpt>
      <trkpt lat="44.33389" lon="3.45979">
        <ele>923</ele>
        <time>2020-01-04T20:47:35Z</time>
      </trkpt>
      <trkpt lat="44.3334" lon="3.46001">
        <ele>929</ele>
        <time>2020-01-04T20:47:47Z</time>
      </trkpt>
      <trkpt lat="44.33295" lon="3.46007">
        <ele>931</ele>
        <time>2020-01-04T20:47:58Z</time>
      </trkpt>
      <trkpt lat="44.33284" lon="3.46005">
        <ele>932</ele>
        <time>2020-01-04T20:48:00Z</time>
      </trkpt>
      <trkpt lat="44.33277" lon="3.45994">
        <ele>934</ele>
        <time>2020-01-04T20:48:03Z</time>
      </trkpt>
      <trkpt lat="44.3328" lon="3.45981">
        <ele>937</ele>
        <time>2020-01-04T20:48:05Z</time>
      </trkpt>
      <trkpt lat="44.33299" lon="3.45936">
        <ele>945</ele>
        <time>2020-01-04T20:48:14Z</time>
      </trkpt>
      <trkpt lat="44.33329" lon="3.45878">
        <ele>953</ele>
        <time>2020-01-04T20:48:26Z</time>
      </trkpt>
      <trkpt lat="44.33355" lon="3.45853">
        <ele>953</ele>
        <time>2020-01-04T20:48:33Z</time>
      </trkpt>
      <trkpt lat="44.33383" lon="3.45814">
        <ele>953</ele>
        <time>2020-01-04T20:48:42Z</time>
      </trkpt>
      <trkpt lat="44.33393" lon="3.45775">
        <ele>957</ele>
        <time>2020-01-04T20:48:49Z</time>
      </trkpt>
      <trkpt lat="44.33408" lon="3.4575">
        <ele>958</ele>
        <time>2020-01-04T20:48:55Z</time>
      </trkpt>
      <trkpt lat="44.3343" lon="3.45657">
        <ele>964</ele>
        <time>2020-01-04T20:49:11Z</time>
      </trkpt>
      <trkpt lat="44.33428" lon="3.45621">
        <ele>966</ele>
        <time>2020-01-04T20:49:17Z</time>
      </trkpt>
      <trkpt lat="44.33419" lon="3.45599">
        <ele>968</ele>
        <time>2020-01-04T20:49:21Z</time>
      </trkpt>
      <trkpt lat="44.33413" lon="3.45651">
        <ele>967</ele>
        <time>2020-01-04T20:49:30Z</time>
      </trkpt>
      <trkpt lat="44.33404" lon="3.45698">
        <ele>964</ele>
        <time>2020-01-04T20:49:38Z</time>
      </trkpt>
      <trkpt lat="44.33376" lon="3.45754">
        <ele>962</ele>
        <time>2020-01-04T20:49:50Z</time>
      </trkpt>
      <trkpt lat="44.333" lon="3.45827">
        <ele>963</ele>
        <time>2020-01-04T20:50:11Z</time>
      </trkpt>
      <trkpt lat="44.33376" lon="3.45754">
        <ele>962</ele>
        <time>2020-01-04T20:50:33Z</time>
      </trkpt>
      <trkpt lat="44.33404" lon="3.45698">
        <ele>964</ele>
        <time>2020-01-04T20:50:44Z</time>
      </trkpt>
      <trkpt lat="44.33413" lon="3.45651">
        <ele>967</ele>
        <time>2020-01-04T20:50:52Z</time>
      </trkpt>
      <trkpt lat="44.33419" lon="3.45589">
        <ele>968</ele>
        <time>2020-01-04T20:51:03Z</time>
      </trkpt>
      <trkpt lat="44.3343" lon="3.45535">
        <ele>966</ele>
        <time>2020-01-04T20:51:12Z</time>
      </trkpt>
      <trkpt lat="44.33438" lon="3.45509">
        <ele>966</ele>
        <time>2020-01-04T20:51:17Z</time>
      </trkpt>
      <trkpt lat="44.33468" lon="3.45451">
        <ele>967</ele>
        <time>2020-01-04T20:51:29Z</time>
      </trkpt>
      <trkpt lat="44.33483" lon="3.45413">
        <ele>968</ele>
        <time>2020-01-04T20:51:36Z</time>
      </trkpt>
      <trkpt lat="44.33531" lon="3.45318">
        <ele>972</ele>
        <time>2020-01-04T20:51:56Z</time>
      </trkpt>
      <trkpt lat="44.33606" lon="3.45136">
        <ele>976</ele>
        <time>2020-01-04T20:52:31Z</time>
      </trkpt>
      <trkpt lat="44.33614" lon="3.4511">
        <ele>976</ele>
        <time>2020-01-04T20:52:35Z</time>
      </trkpt>
      <trkpt lat="44.33638" lon="3.45011">
        <ele>983</ele>
        <time>2020-01-04T20:52:53Z</time>
      </trkpt>
      <trkpt lat="44.33668" lon="3.44842">
        <ele>993</ele>
        <time>2020-01-04T20:53:22Z</time>
      </trkpt>
      <trkpt lat="44.33666" lon="3.44713">
        <ele>1001</ele>
        <time>2020-01-04T20:53:43Z</time>
      </trkpt>
      <trkpt lat="44.3367" lon="3.44694">
        <ele>1002</ele>
        <time>2020-01-04T20:53:47Z</time>
      </trkpt>
      <trkpt lat="44.33674" lon="3.44687">
        <ele>1003</ele>
        <time>2020-01-04T20:53:48Z</time>
      </trkpt>
      <trkpt lat="44.33696" lon="3.44672">
        <ele>1004</ele>
        <time>2020-01-04T20:53:54Z</time>
      </trkpt>
      <trkpt lat="44.33709" lon="3.44668">
        <ele>1005</ele>
        <time>2020-01-04T20:53:57Z</time>
      </trkpt>
      <trkpt lat="44.33717" lon="3.44662">
        <ele>1005</ele>
        <time>2020-01-04T20:53:59Z</time>
      </trkpt>
      <trkpt lat="44.33726" lon="3.44651">
        <ele>1006</ele>
        <time>2020-01-04T20:54:02Z</time>
      </trkpt>
      <trkpt lat="44.33734" lon="3.44636">
        <ele>1007</ele>
        <time>2020-01-04T20:54:05Z</time>
      </trkpt>
      <trkpt lat="44.33773" lon="3.44501">
        <ele>1012</ele>
        <time>2020-01-04T20:54:29Z</time>
      </trkpt>
      <trkpt lat="44.33782" lon="3.44479">
        <ele>1012</ele>
        <time>2020-01-04T20:54:34Z</time>
      </trkpt>
      <trkpt lat="44.33803" lon="3.44445">
        <ele>1013</ele>
        <time>2020-01-04T20:54:41Z</time>
      </trkpt>
      <trkpt lat="44.3381" lon="3.44428">
        <ele>1013</ele>
        <time>2020-01-04T20:54:44Z</time>
      </trkpt>
      <trkpt lat="44.33816" lon="3.44395">
        <ele>1014</ele>
        <time>2020-01-04T20:54:50Z</time>
      </trkpt>
      <trkpt lat="44.33819" lon="3.44356">
        <ele>1014</ele>
        <time>2020-01-04T20:54:57Z</time>
      </trkpt>
      <trkpt lat="44.33817" lon="3.4434">
        <ele>1015</ele>
        <time>2020-01-04T20:54:59Z</time>
      </trkpt>
      <trkpt lat="44.33809" lon="3.44316">
        <ele>1016</ele>
        <time>2020-01-04T20:55:04Z</time>
      </trkpt>
      <trkpt lat="44.33785" lon="3.44266">
        <ele>1020</ele>
        <time>2020-01-04T20:55:14Z</time>
      </trkpt>
      <trkpt lat="44.33791" lon="3.44214">
        <ele>1023</ele>
        <time>2020-01-04T20:55:23Z</time>
      </trkpt>
      <trkpt lat="44.33786" lon="3.4416">
        <ele>1027</ele>
        <time>2020-01-04T20:55:32Z</time>
      </trkpt>
      <trkpt lat="44.33758" lon="3.44057">
        <ele>1027</ele>
        <time>2020-01-04T20:55:50Z</time>
      </trkpt>
      <trkpt lat="44.33728" lon="3.43978">
        <ele>1022</ele>
        <time>2020-01-04T20:56:05Z</time>
      </trkpt>
      <trkpt lat="44.33716" lon="3.43911">
        <ele>1018</ele>
        <time>2020-01-04T20:56:17Z</time>
      </trkpt>
      <trkpt lat="44.33719" lon="3.43861">
        <ele>1017</ele>
        <time>2020-01-04T20:56:25Z</time>
      </trkpt>
      <trkpt lat="44.33727" lon="3.43809">
        <ele>1015</ele>
        <time>2020-01-04T20:56:34Z</time>
      </trkpt>
      <trkpt lat="44.33726" lon="3.43783">
        <ele>1014</ele>
        <time>2020-01-04T20:56:38Z</time>
      </trkpt>
      <trkpt lat="44.33715" lon="3.43727">
        <ele>1010</ele>
        <time>2020-01-04T20:56:48Z</time>
      </trkpt>
      <trkpt lat="44.33685" lon="3.43675">
        <ele>1006</ele>
        <time>2020-01-04T20:56:59Z</time>
      </trkpt>
      <trkpt lat="44.33677" lon="3.43622">
        <ele>1002</ele>
        <time>2020-01-04T20:57:08Z</time>
      </trkpt>
      <trkpt lat="44.33673" lon="3.43567">
        <ele>998</ele>
        <time>2020-01-04T20:57:17Z</time>
      </trkpt>
      <trkpt lat="44.33674" lon="3.43468">
        <ele>992</ele>
        <time>2020-01-04T20:57:34Z</time>
      </trkpt>
      <trkpt lat="44.33685" lon="3.43458">
        <ele>989</ele>
        <time>2020-01-04T20:57:37Z</time>
      </trkpt>
      <trkpt lat="44.33703" lon="3.43451">
        <ele>986</ele>
        <time>2020-01-04T20:57:41Z</time>
      </trkpt>
      <trkpt lat="44.33722" lon="3.43463">
        <ele>985</ele>
        <time>2020-01-04T20:57:46Z</time>
      </trkpt>
      <trkpt lat="44.33766" lon="3.43502">
        <ele>981</ele>
        <time>2020-01-04T20:57:58Z</time>
      </trkpt>
      <trkpt lat="44.33782" lon="3.43519">
        <ele>980</ele>
        <time>2020-01-04T20:58:03Z</time>
      </trkpt>
      <trkpt lat="44.33788" lon="3.43502">
        <ele>978</ele>
        <time>2020-01-04T20:58:06Z</time>
      </trkpt>
      <trkpt lat="44.33792" lon="3.43474">
        <ele>976</ele>
        <time>2020-01-04T20:58:11Z</time>
      </trkpt>
      <trkpt lat="44.33763" lon="3.43371">
        <ele>975</ele>
        <time>2020-01-04T20:58:30Z</time>
      </trkpt>
      <trkpt lat="44.33752" lon="3.43341">
        <ele>974</ele>
        <time>2020-01-04T20:58:35Z</time>
      </trkpt>
      <trkpt lat="44.33758" lon="3.43329">
        <ele>974</ele>
        <time>2020-01-04T20:58:38Z</time>
      </trkpt>
      <trkpt lat="44.33769" lon="3.43324">
        <ele>974</ele>
        <time>2020-01-04T20:58:40Z</time>
      </trkpt>
      <trkpt lat="44.33794" lon="3.43329">
        <ele>972</ele>
        <time>2020-01-04T20:58:46Z</time>
      </trkpt>
      <trkpt lat="44.3382" lon="3.4331">
        <ele>972</ele>
        <time>2020-01-04T20:58:53Z</time>
      </trkpt>
      <trkpt lat="44.33839" lon="3.43291">
        <ele>974</ele>
        <time>2020-01-04T20:58:59Z</time>
      </trkpt>
      <trkpt lat="44.33849" lon="3.43266">
        <ele>976</ele>
        <time>2020-01-04T20:59:03Z</time>
      </trkpt>
      <trkpt lat="44.3386" lon="3.43255">
        <ele>977</ele>
        <time>2020-01-04T20:59:06Z</time>
      </trkpt>
      <trkpt lat="44.33895" lon="3.43187">
        <ele>984</ele>
        <time>2020-01-04T20:59:20Z</time>
      </trkpt>
      <trkpt lat="44.33931" lon="3.431">
        <ele>993</ele>
        <time>2020-01-04T20:59:37Z</time>
      </trkpt>
      <trkpt lat="44.33936" lon="3.43046">
        <ele>996</ele>
        <time>2020-01-04T20:59:46Z</time>
      </trkpt>
      <trkpt lat="44.33947" lon="3.43029">
        <ele>998</ele>
        <time>2020-01-04T20:59:50Z</time>
      </trkpt>
      <trkpt lat="44.33958" lon="3.42997">
        <ele>1002</ele>
        <time>2020-01-04T20:59:56Z</time>
      </trkpt>
      <trkpt lat="44.3397" lon="3.42975">
        <ele>1005</ele>
        <time>2020-01-04T21:00:01Z</time>
      </trkpt>
      <trkpt lat="44.33977" lon="3.42954">
        <ele>1007</ele>
        <time>2020-01-04T21:00:05Z</time>
      </trkpt>
      <trkpt lat="44.3399" lon="3.42894">
        <ele>1013</ele>
        <time>2020-01-04T21:00:15Z</time>
      </trkpt>
      <trkpt lat="44.33994" lon="3.42864">
        <ele>1016</ele>
        <time>2020-01-04T21:00:20Z</time>
      </trkpt>
      <trkpt lat="44.34031" lon="3.42881">
        <ele>1016</ele>
        <time>2020-01-04T21:00:29Z</time>
      </trkpt>
      <trkpt lat="44.34043" lon="3.42879">
        <ele>1017</ele>
        <time>2020-01-04T21:00:32Z</time>
      </trkpt>
      <trkpt lat="44.3405" lon="3.4287">
        <ele>1017</ele>
        <time>2020-01-04T21:00:34Z</time>
      </trkpt>
      <trkpt lat="44.34065" lon="3.42823">
        <ele>1021</ele>
        <time>2020-01-04T21:00:43Z</time>
      </trkpt>
      <trkpt lat="44.34084" lon="3.42786">
        <ele>1025</ele>
        <time>2020-01-04T21:00:51Z</time>
      </trkpt>
      <trkpt lat="44.34114" lon="3.42705">
        <ele>1031</ele>
        <time>2020-01-04T21:01:06Z</time>
      </trkpt>
      <trkpt lat="44.34123" lon="3.42694">
        <ele>1031</ele>
        <time>2020-01-04T21:01:09Z</time>
      </trkpt>
      <trkpt lat="44.34146" lon="3.4269">
        <ele>1029</ele>
        <time>2020-01-04T21:01:14Z</time>
      </trkpt>
      <trkpt lat="44.34161" lon="3.42692">
        <ele>1027</ele>
        <time>2020-01-04T21:01:17Z</time>
      </trkpt>
      <trkpt lat="44.34168" lon="3.4269">
        <ele>1027</ele>
        <time>2020-01-04T21:01:19Z</time>
      </trkpt>
      <trkpt lat="44.34206" lon="3.42658">
        <ele>1028</ele>
        <time>2020-01-04T21:01:30Z</time>
      </trkpt>
      <trkpt lat="44.34219" lon="3.42653">
        <ele>1028</ele>
        <time>2020-01-04T21:01:33Z</time>
      </trkpt>
      <trkpt lat="44.34232" lon="3.42653">
        <ele>1027</ele>
        <time>2020-01-04T21:01:36Z</time>
      </trkpt>
      <trkpt lat="44.34262" lon="3.42662">
        <ele>1026</ele>
        <time>2020-01-04T21:01:43Z</time>
      </trkpt>
      <trkpt lat="44.34284" lon="3.4266">
        <ele>1024</ele>
        <time>2020-01-04T21:01:48Z</time>
      </trkpt>
      <trkpt lat="44.34307" lon="3.42653">
        <ele>1021</ele>
        <time>2020-01-04T21:01:54Z</time>
      </trkpt>
      <trkpt lat="44.34318" lon="3.42655">
        <ele>1020</ele>
        <time>2020-01-04T21:01:56Z</time>
      </trkpt>
      <trkpt lat="44.34329" lon="3.42653">
        <ele>1019</ele>
        <time>2020-01-04T21:01:59Z</time>
      </trkpt>
      <trkpt lat="44.34342" lon="3.42655">
        <ele>1017</ele>
        <time>2020-01-04T21:02:02Z</time>
      </trkpt>
      <trkpt lat="44.34352" lon="3.42662">
        <ele>1017</ele>
        <time>2020-01-04T21:02:04Z</time>
      </trkpt>
      <trkpt lat="44.34361" lon="3.42664">
        <ele>1015</ele>
        <time>2020-01-04T21:02:06Z</time>
      </trkpt>
      <trkpt lat="44.34367" lon="3.42664">
        <ele>1014</ele>
        <time>2020-01-04T21:02:08Z</time>
      </trkpt>
      <trkpt lat="44.34374" lon="3.42658">
        <ele>1013</ele>
        <time>2020-01-04T21:02:10Z</time>
      </trkpt>
      <trkpt lat="44.34374" lon="3.42651">
        <ele>1012</ele>
        <time>2020-01-04T21:02:11Z</time>
      </trkpt>
      <trkpt lat="44.34423" lon="3.42653">
        <ele>1004</ele>
        <time>2020-01-04T21:02:22Z</time>
      </trkpt>
      <trkpt lat="44.345" lon="3.42675">
        <ele>998</ele>
        <time>2020-01-04T21:02:41Z</time>
      </trkpt>
      <trkpt lat="44.34515" lon="3.42677">
        <ele>997</ele>
        <time>2020-01-04T21:02:44Z</time>
      </trkpt>
      <trkpt lat="44.34539" lon="3.42675">
        <ele>995</ele>
        <time>2020-01-04T21:02:50Z</time>
      </trkpt>
      <trkpt lat="44.34576" lon="3.42666">
        <ele>991</ele>
        <time>2020-01-04T21:02:59Z</time>
      </trkpt>
      <trkpt lat="44.34638" lon="3.42664">
        <ele>986</ele>
        <time>2020-01-04T21:03:13Z</time>
      </trkpt>
      <trkpt lat="44.34659" lon="3.42658">
        <ele>984</ele>
        <time>2020-01-04T21:03:18Z</time>
      </trkpt>
      <trkpt lat="44.34668" lon="3.42651">
        <ele>983</ele>
        <time>2020-01-04T21:03:21Z</time>
      </trkpt>
      <trkpt lat="44.34681" lon="3.42634">
        <ele>981</ele>
        <time>2020-01-04T21:03:25Z</time>
      </trkpt>
      <trkpt lat="44.34687" lon="3.42634">
        <ele>981</ele>
        <time>2020-01-04T21:03:26Z</time>
      </trkpt>
      <trkpt lat="44.34696" lon="3.42645">
        <ele>980</ele>
        <time>2020-01-04T21:03:29Z</time>
      </trkpt>
      <trkpt lat="44.34704" lon="3.42673">
        <ele>980</ele>
        <time>2020-01-04T21:03:34Z</time>
      </trkpt>
      <trkpt lat="44.34715" lon="3.42685">
        <ele>980</ele>
        <time>2020-01-04T21:03:37Z</time>
      </trkpt>
      <trkpt lat="44.3473" lon="3.4269">
        <ele>979</ele>
        <time>2020-01-04T21:03:41Z</time>
      </trkpt>
      <trkpt lat="44.34788" lon="3.42696">
        <ele>977</ele>
        <time>2020-01-04T21:03:54Z</time>
      </trkpt>
      <trkpt lat="44.34803" lon="3.4269">
        <ele>977</ele>
        <time>2020-01-04T21:03:58Z</time>
      </trkpt>
      <trkpt lat="44.34814" lon="3.4267">
        <ele>975</ele>
        <time>2020-01-04T21:04:02Z</time>
      </trkpt>
      <trkpt lat="44.34829" lon="3.42655">
        <ele>976</ele>
        <time>2020-01-04T21:04:07Z</time>
      </trkpt>
      <trkpt lat="44.34837" lon="3.42653">
        <ele>976</ele>
        <time>2020-01-04T21:04:08Z</time>
      </trkpt>
      <trkpt lat="44.3487" lon="3.42632">
        <ele>977</ele>
        <time>2020-01-04T21:04:17Z</time>
      </trkpt>
      <trkpt lat="44.34893" lon="3.42625">
        <ele>978</ele>
        <time>2020-01-04T21:04:22Z</time>
      </trkpt>
      <trkpt lat="44.34958" lon="3.42619">
        <ele>978</ele>
        <time>2020-01-04T21:04:38Z</time>
      </trkpt>
      <trkpt lat="44.34998" lon="3.4264">
        <ele>975</ele>
        <time>2020-01-04T21:04:48Z</time>
      </trkpt>
      <trkpt lat="44.35071" lon="3.42655">
        <ele>966</ele>
        <time>2020-01-04T21:05:05Z</time>
      </trkpt>
      <trkpt lat="44.35161" lon="3.42645">
        <ele>954</ele>
        <time>2020-01-04T21:05:26Z</time>
      </trkpt>
      <trkpt lat="44.35189" lon="3.42653">
        <ele>950</ele>
        <time>2020-01-04T21:05:33Z</time>
      </trkpt>
      <trkpt lat="44.35206" lon="3.42655">
        <ele>948</ele>
        <time>2020-01-04T21:05:37Z</time>
      </trkpt>
      <trkpt lat="44.35243" lon="3.42675">
        <ele>944</ele>
        <time>2020-01-04T21:05:46Z</time>
      </trkpt>
      <trkpt lat="44.35266" lon="3.42681">
        <ele>942</ele>
        <time>2020-01-04T21:05:51Z</time>
      </trkpt>
      <trkpt lat="44.35279" lon="3.42681">
        <ele>941</ele>
        <time>2020-01-04T21:05:54Z</time>
      </trkpt>
      <trkpt lat="44.35307" lon="3.42677">
        <ele>939</ele>
        <time>2020-01-04T21:06:01Z</time>
      </trkpt>
      <trkpt lat="44.35327" lon="3.42666">
        <ele>937</ele>
        <time>2020-01-04T21:06:06Z</time>
      </trkpt>
      <trkpt lat="44.35342" lon="3.42649">
        <ele>937</ele>
        <time>2020-01-04T21:06:10Z</time>
      </trkpt>
      <trkpt lat="44.35367" lon="3.42638">
        <ele>937</ele>
        <time>2020-01-04T21:06:17Z</time>
      </trkpt>
      <trkpt lat="44.3547" lon="3.42636">
        <ele>935</ele>
        <time>2020-01-04T21:06:41Z</time>
      </trkpt>
      <trkpt lat="44.35496" lon="3.42649">
        <ele>933</ele>
        <time>2020-01-04T21:06:47Z</time>
      </trkpt>
      <trkpt lat="44.35505" lon="3.42651">
        <ele>932</ele>
        <time>2020-01-04T21:06:49Z</time>
      </trkpt>
      <trkpt lat="44.35543" lon="3.42647">
        <ele>931</ele>
        <time>2020-01-04T21:06:58Z</time>
      </trkpt>
      <trkpt lat="44.35571" lon="3.42655">
        <ele>928</ele>
        <time>2020-01-04T21:07:05Z</time>
      </trkpt>
      <trkpt lat="44.3558" lon="3.42655">
        <ele>927</ele>
        <time>2020-01-04T21:07:07Z</time>
      </trkpt>
      <trkpt lat="44.35644" lon="3.42643">
        <ele>924</ele>
        <time>2020-01-04T21:07:22Z</time>
      </trkpt>
      <trkpt lat="44.35657" lon="3.42636">
        <ele>925</ele>
        <time>2020-01-04T21:07:25Z</time>
      </trkpt>
      <trkpt lat="44.35668" lon="3.42634">
        <ele>925</ele>
        <time>2020-01-04T21:07:28Z</time>
      </trkpt>
      <trkpt lat="44.35676" lon="3.42636">
        <ele>922</ele>
        <time>2020-01-04T21:07:30Z</time>
      </trkpt>
      <trkpt lat="44.35691" lon="3.42645">
        <ele>916</ele>
        <time>2020-01-04T21:07:34Z</time>
      </trkpt>
      <trkpt lat="44.35726" lon="3.42643">
        <ele>909</ele>
        <time>2020-01-04T21:07:42Z</time>
      </trkpt>
      <trkpt lat="44.35743" lon="3.42649">
        <ele>903</ele>
        <time>2020-01-04T21:07:46Z</time>
      </trkpt>
      <trkpt lat="44.35758" lon="3.42634">
        <ele>906</ele>
        <time>2020-01-04T21:07:50Z</time>
      </trkpt>
      <trkpt lat="44.35764" lon="3.42634">
        <ele>904</ele>
        <time>2020-01-04T21:07:51Z</time>
      </trkpt>
      <trkpt lat="44.35771" lon="3.42628">
        <ele>905</ele>
        <time>2020-01-04T21:07:53Z</time>
      </trkpt>
      <trkpt lat="44.35796" lon="3.42615">
        <ele>903</ele>
        <time>2020-01-04T21:08:00Z</time>
      </trkpt>
      <trkpt lat="44.35805" lon="3.42613">
        <ele>900</ele>
        <time>2020-01-04T21:08:02Z</time>
      </trkpt>
      <trkpt lat="44.35807" lon="3.42606">
        <ele>904</ele>
        <time>2020-01-04T21:08:03Z</time>
      </trkpt>
      <trkpt lat="44.35814" lon="3.42604">
        <ele>902</ele>
        <time>2020-01-04T21:08:05Z</time>
      </trkpt>
      <trkpt lat="44.3582" lon="3.4261">
        <ele>897</ele>
        <time>2020-01-04T21:08:06Z</time>
      </trkpt>
      <trkpt lat="44.35829" lon="3.42606">
        <ele>896</ele>
        <time>2020-01-04T21:08:09Z</time>
      </trkpt>
      <trkpt lat="44.35835" lon="3.42613">
        <ele>889</ele>
        <time>2020-01-04T21:08:10Z</time>
      </trkpt>
      <trkpt lat="44.35865" lon="3.42617">
        <ele>870</ele>
        <time>2020-01-04T21:08:17Z</time>
      </trkpt>
      <trkpt lat="44.35874" lon="3.42625">
        <ele>862</ele>
        <time>2020-01-04T21:08:20Z</time>
      </trkpt>
      <trkpt lat="44.35872" lon="3.42634">
        <ele>860</ele>
        <time>2020-01-04T21:08:22Z</time>
      </trkpt>
      <trkpt lat="44.35857" lon="3.42643">
        <ele>863</ele>
        <time>2020-01-04T21:08:25Z</time>
      </trkpt>
      <trkpt lat="44.35844" lon="3.42647">
        <ele>866</ele>
        <time>2020-01-04T21:08:28Z</time>
      </trkpt>
      <trkpt lat="44.35835" lon="3.42645">
        <ele>871</ele>
        <time>2020-01-04T21:08:31Z</time>
      </trkpt>
      <trkpt lat="44.35839" lon="3.42649">
        <ele>868</ele>
        <time>2020-01-04T21:08:32Z</time>
      </trkpt>
      <trkpt lat="44.35848" lon="3.42651">
        <ele>863</ele>
        <time>2020-01-04T21:08:34Z</time>
      </trkpt>
      <trkpt lat="44.35865" lon="3.42662">
        <ele>851</ele>
        <time>2020-01-04T21:08:38Z</time>
      </trkpt>
      <trkpt lat="44.35876" lon="3.42675">
        <ele>841</ele>
        <time>2020-01-04T21:08:42Z</time>
      </trkpt>
      <trkpt lat="44.35878" lon="3.42666">
        <ele>845</ele>
        <time>2020-01-04T21:08:43Z</time>
      </trkpt>
      <trkpt lat="44.35902" lon="3.42653">
        <ele>840</ele>
        <time>2020-01-04T21:08:49Z</time>
      </trkpt>
      <trkpt lat="44.35899" lon="3.4263">
        <ele>847</ele>
        <time>2020-01-04T21:08:53Z</time>
      </trkpt>
      <trkpt lat="44.35906" lon="3.42606">
        <ele>850</ele>
        <time>2020-01-04T21:08:57Z</time>
      </trkpt>
      <trkpt lat="44.35917" lon="3.4254">
        <ele>856</ele>
        <time>2020-01-04T21:09:09Z</time>
      </trkpt>
      <trkpt lat="44.35951" lon="3.42467">
        <ele>847</ele>
        <time>2020-01-04T21:09:23Z</time>
      </trkpt>
      <trkpt lat="44.35992" lon="3.42389">
        <ele>835</ele>
        <time>2020-01-04T21:09:39Z</time>
      </trkpt>
      <trkpt lat="44.36002" lon="3.42379">
        <ele>831</ele>
        <time>2020-01-04T21:09:42Z</time>
      </trkpt>
      <trkpt lat="44.36015" lon="3.42372">
        <ele>826</ele>
        <time>2020-01-04T21:09:46Z</time>
      </trkpt>
      <trkpt lat="44.3602" lon="3.42364">
        <ele>825</ele>
        <time>2020-01-04T21:09:47Z</time>
      </trkpt>
      <trkpt lat="44.3603" lon="3.42357">
        <ele>821</ele>
        <time>2020-01-04T21:09:50Z</time>
      </trkpt>
      <trkpt lat="44.36043" lon="3.4234">
        <ele>817</ele>
        <time>2020-01-04T21:09:54Z</time>
      </trkpt>
      <trkpt lat="44.36043" lon="3.42312">
        <ele>822</ele>
        <time>2020-01-04T21:09:59Z</time>
      </trkpt>
      <trkpt lat="44.36048" lon="3.42299">
        <ele>820</ele>
        <time>2020-01-04T21:10:01Z</time>
      </trkpt>
      <trkpt lat="44.36043" lon="3.42276">
        <ele>828</ele>
        <time>2020-01-04T21:10:05Z</time>
      </trkpt>
      <trkpt lat="44.3605" lon="3.42237">
        <ele>827</ele>
        <time>2020-01-04T21:10:12Z</time>
      </trkpt>
      <trkpt lat="44.36101" lon="3.4216">
        <ele>794</ele>
        <time>2020-01-04T21:10:30Z</time>
      </trkpt>
      <trkpt lat="44.36112" lon="3.42155">
        <ele>786</ele>
        <time>2020-01-04T21:10:32Z</time>
      </trkpt>
      <trkpt lat="44.36123" lon="3.42143">
        <ele>778</ele>
        <time>2020-01-04T21:10:35Z</time>
      </trkpt>
      <trkpt lat="44.36114" lon="3.42119">
        <ele>781</ele>
        <time>2020-01-04T21:10:40Z</time>
      </trkpt>
      <trkpt lat="44.36108" lon="3.42091">
        <ele>782</ele>
        <time>2020-01-04T21:10:45Z</time>
      </trkpt>
      <trkpt lat="44.36097" lon="3.42083">
        <ele>788</ele>
        <time>2020-01-04T21:10:48Z</time>
      </trkpt>
      <trkpt lat="44.3608" lon="3.4204">
        <ele>796</ele>
        <time>2020-01-04T21:10:56Z</time>
      </trkpt>
      <trkpt lat="44.36082" lon="3.42018">
        <ele>792</ele>
        <time>2020-01-04T21:11:00Z</time>
      </trkpt>
      <trkpt lat="44.3609" lon="3.41999">
        <ele>785</ele>
        <time>2020-01-04T21:11:03Z</time>
      </trkpt>
      <trkpt lat="44.36118" lon="3.41964">
        <ele>762</ele>
        <time>2020-01-04T21:11:12Z</time>
      </trkpt>
      <trkpt lat="44.36118" lon="3.41954">
        <ele>761</ele>
        <time>2020-01-04T21:11:14Z</time>
      </trkpt>
      <trkpt lat="44.36125" lon="3.41932">
        <ele>755</ele>
        <time>2020-01-04T21:11:18Z</time>
      </trkpt>
      <trkpt lat="44.36123" lon="3.41917">
        <ele>755</ele>
        <time>2020-01-04T21:11:20Z</time>
      </trkpt>
      <trkpt lat="44.36093" lon="3.41917">
        <ele>772</ele>
        <time>2020-01-04T21:11:27Z</time>
      </trkpt>
      <trkpt lat="44.3608" lon="3.41909">
        <ele>776</ele>
        <time>2020-01-04T21:11:31Z</time>
      </trkpt>
      <trkpt lat="44.36082" lon="3.41902">
        <ele>773</ele>
        <time>2020-01-04T21:11:32Z</time>
      </trkpt>
      <trkpt lat="44.36054" lon="3.41892">
        <ele>785</ele>
        <time>2020-01-04T21:11:39Z</time>
      </trkpt>
      <trkpt lat="44.36043" lon="3.41881">
        <ele>788</ele>
        <time>2020-01-04T21:11:42Z</time>
      </trkpt>
      <trkpt lat="44.36033" lon="3.41859">
        <ele>787</ele>
        <time>2020-01-04T21:11:46Z</time>
      </trkpt>
      <trkpt lat="44.36024" lon="3.41827">
        <ele>784</ele>
        <time>2020-01-04T21:11:52Z</time>
      </trkpt>
      <trkpt lat="44.36022" lon="3.41799">
        <ele>776</ele>
        <time>2020-01-04T21:11:57Z</time>
      </trkpt>
      <trkpt lat="44.36033" lon="3.41836">
        <ele>781</ele>
        <time>2020-01-04T21:12:03Z</time>
      </trkpt>
      <trkpt lat="44.36054" lon="3.41849">
        <ele>772</ele>
        <time>2020-01-04T21:12:09Z</time>
      </trkpt>
      <trkpt lat="44.36045" lon="3.41831">
        <ele>772</ele>
        <time>2020-01-04T21:12:12Z</time>
      </trkpt>
      <trkpt lat="44.36041" lon="3.41814">
        <ele>768</ele>
        <time>2020-01-04T21:12:15Z</time>
      </trkpt>
      <trkpt lat="44.36048" lon="3.41797">
        <ele>756</ele>
        <time>2020-01-04T21:12:19Z</time>
      </trkpt>
      <trkpt lat="44.36048" lon="3.4178">
        <ele>749</ele>
        <time>2020-01-04T21:12:21Z</time>
      </trkpt>
      <trkpt lat="44.36065" lon="3.4181">
        <ele>749</ele>
        <time>2020-01-04T21:12:28Z</time>
      </trkpt>
      <trkpt lat="44.36078" lon="3.41823">
        <ele>747</ele>
        <time>2020-01-04T21:12:32Z</time>
      </trkpt>
      <trkpt lat="44.36093" lon="3.41829">
        <ele>742</ele>
        <time>2020-01-04T21:12:35Z</time>
      </trkpt>
      <trkpt lat="44.36105" lon="3.41821">
        <ele>733</ele>
        <time>2020-01-04T21:12:38Z</time>
      </trkpt>
      <trkpt lat="44.36118" lon="3.41816">
        <ele>724</ele>
        <time>2020-01-04T21:12:41Z</time>
      </trkpt>
      <trkpt lat="44.36131" lon="3.41831">
        <ele>727</ele>
        <time>2020-01-04T21:12:45Z</time>
      </trkpt>
      <trkpt lat="44.36144" lon="3.41831">
        <ele>721</ele>
        <time>2020-01-04T21:12:48Z</time>
      </trkpt>
      <trkpt lat="44.36161" lon="3.41823">
        <ele>709</ele>
        <time>2020-01-04T21:12:53Z</time>
      </trkpt>
      <trkpt lat="44.36185" lon="3.41827">
        <ele>698</ele>
        <time>2020-01-04T21:12:58Z</time>
      </trkpt>
      <trkpt lat="44.36204" lon="3.41819">
        <ele>685</ele>
        <time>2020-01-04T21:13:03Z</time>
      </trkpt>
      <trkpt lat="44.36196" lon="3.41816">
        <ele>688</ele>
        <time>2020-01-04T21:13:05Z</time>
      </trkpt>
      <trkpt lat="44.36176" lon="3.41819">
        <ele>700</ele>
        <time>2020-01-04T21:13:10Z</time>
      </trkpt>
      <trkpt lat="44.36118" lon="3.41784">
        <ele>708</ele>
        <time>2020-01-04T21:13:24Z</time>
      </trkpt>
      <trkpt lat="44.36112" lon="3.41776">
        <ele>706</ele>
        <time>2020-01-04T21:13:26Z</time>
      </trkpt>
      <trkpt lat="44.36112" lon="3.41758">
        <ele>696</ele>
        <time>2020-01-04T21:13:29Z</time>
      </trkpt>
      <trkpt lat="44.36138" lon="3.4178">
        <ele>697</ele>
        <time>2020-01-04T21:13:36Z</time>
      </trkpt>
      <trkpt lat="44.36148" lon="3.41782">
        <ele>693</ele>
        <time>2020-01-04T21:13:39Z</time>
      </trkpt>
      <trkpt lat="44.36151" lon="3.41778">
        <ele>690</ele>
        <time>2020-01-04T21:13:40Z</time>
      </trkpt>
      <trkpt lat="44.36146" lon="3.41778">
        <ele>692</ele>
        <time>2020-01-04T21:13:41Z</time>
      </trkpt>
      <trkpt lat="44.36151" lon="3.41771">
        <ele>686</ele>
        <time>2020-01-04T21:13:42Z</time>
      </trkpt>
      <trkpt lat="44.36157" lon="3.41774">
        <ele>685</ele>
        <time>2020-01-04T21:13:44Z</time>
      </trkpt>
      <trkpt lat="44.36159" lon="3.41767">
        <ele>680</ele>
        <time>2020-01-04T21:13:45Z</time>
      </trkpt>
      <trkpt lat="44.36168" lon="3.41763">
        <ele>674</ele>
        <time>2020-01-04T21:13:47Z</time>
      </trkpt>
      <trkpt lat="44.36183" lon="3.41765">
        <ele>671</ele>
        <time>2020-01-04T21:13:51Z</time>
      </trkpt>
      <trkpt lat="44.36204" lon="3.41754">
        <ele>661</ele>
        <time>2020-01-04T21:13:56Z</time>
      </trkpt>
      <trkpt lat="44.36224" lon="3.4175">
        <ele>654</ele>
        <time>2020-01-04T21:14:01Z</time>
      </trkpt>
      <trkpt lat="44.36232" lon="3.4175">
        <ele>652</ele>
        <time>2020-01-04T21:14:03Z</time>
      </trkpt>
      <trkpt lat="44.36239" lon="3.41754">
        <ele>652</ele>
        <time>2020-01-04T21:14:05Z</time>
      </trkpt>
      <trkpt lat="44.36251" lon="3.4175">
        <ele>648</ele>
        <time>2020-01-04T21:14:07Z</time>
      </trkpt>
      <trkpt lat="44.36269" lon="3.41758">
        <ele>641</ele>
        <time>2020-01-04T21:14:12Z</time>
      </trkpt>
      <trkpt lat="44.36277" lon="3.41776">
        <ele>639</ele>
        <time>2020-01-04T21:14:15Z</time>
      </trkpt>
      <trkpt lat="44.36281" lon="3.41797">
        <ele>640</ele>
        <time>2020-01-04T21:14:19Z</time>
      </trkpt>
      <trkpt lat="44.36281" lon="3.41778">
        <ele>638</ele>
        <time>2020-01-04T21:14:22Z</time>
      </trkpt>
      <trkpt lat="44.36284" lon="3.41765">
        <ele>635</ele>
        <time>2020-01-04T21:14:24Z</time>
      </trkpt>
      <trkpt lat="44.36277" lon="3.41701">
        <ele>621</ele>
        <time>2020-01-04T21:14:35Z</time>
      </trkpt>
      <trkpt lat="44.36299" lon="3.41713">
        <ele>617</ele>
        <time>2020-01-04T21:14:41Z</time>
      </trkpt>
      <trkpt lat="44.36299" lon="3.41705">
        <ele>616</ele>
        <time>2020-01-04T21:14:42Z</time>
      </trkpt>
      <trkpt lat="44.36303" lon="3.41703">
        <ele>614</ele>
        <time>2020-01-04T21:14:43Z</time>
      </trkpt>
      <trkpt lat="44.36307" lon="3.41713">
        <ele>615</ele>
        <time>2020-01-04T21:14:45Z</time>
      </trkpt>
      <trkpt lat="44.36314" lon="3.41713">
        <ele>613</ele>
        <time>2020-01-04T21:14:47Z</time>
      </trkpt>
      <trkpt lat="44.36311" lon="3.41703">
        <ele>612</ele>
        <time>2020-01-04T21:14:48Z</time>
      </trkpt>
      <trkpt lat="44.36316" lon="3.41694">
        <ele>609</ele>
        <time>2020-01-04T21:14:50Z</time>
      </trkpt>
      <trkpt lat="44.36324" lon="3.41709">
        <ele>609</ele>
        <time>2020-01-04T21:14:53Z</time>
      </trkpt>
      <trkpt lat="44.36322" lon="3.41741">
        <ele>615</ele>
        <time>2020-01-04T21:14:59Z</time>
      </trkpt>
      <trkpt lat="44.36324" lon="3.41746">
        <ele>615</ele>
        <time>2020-01-04T21:15:00Z</time>
      </trkpt>
      <trkpt lat="44.36329" lon="3.41718">
        <ele>609</ele>
        <time>2020-01-04T21:15:05Z</time>
      </trkpt>
      <trkpt lat="44.36327" lon="3.41711">
        <ele>608</ele>
        <time>2020-01-04T21:15:06Z</time>
      </trkpt>
      <trkpt lat="44.36333" lon="3.41694">
        <ele>604</ele>
        <time>2020-01-04T21:15:09Z</time>
      </trkpt>
      <trkpt lat="44.36333" lon="3.41681">
        <ele>603</ele>
        <time>2020-01-04T21:15:11Z</time>
      </trkpt>
      <trkpt lat="44.36337" lon="3.41664">
        <ele>598</ele>
        <time>2020-01-04T21:15:14Z</time>
      </trkpt>
      <trkpt lat="44.36344" lon="3.41658">
        <ele>593</ele>
        <time>2020-01-04T21:15:16Z</time>
      </trkpt>
      <trkpt lat="44.36348" lon="3.41671">
        <ele>594</ele>
        <time>2020-01-04T21:15:18Z</time>
      </trkpt>
      <trkpt lat="44.36352" lon="3.4166">
        <ele>590</ele>
        <time>2020-01-04T21:15:21Z</time>
      </trkpt>
      <trkpt lat="44.36361" lon="3.41677">
        <ele>588</ele>
        <time>2020-01-04T21:15:24Z</time>
      </trkpt>
      <trkpt lat="44.36363" lon="3.41649">
        <ele>582</ele>
        <time>2020-01-04T21:15:29Z</time>
      </trkpt>
      <trkpt lat="44.36376" lon="3.41621">
        <ele>571</ele>
        <time>2020-01-04T21:15:34Z</time>
      </trkpt>
      <trkpt lat="44.3638" lon="3.41619">
        <ele>569</ele>
        <time>2020-01-04T21:15:35Z</time>
      </trkpt>
      <trkpt lat="44.3638" lon="3.41615">
        <ele>569</ele>
        <time>2020-01-04T21:15:36Z</time>
      </trkpt>
      <trkpt lat="44.36369" lon="3.41619">
        <ele>573</ele>
        <time>2020-01-04T21:15:39Z</time>
      </trkpt>
      <trkpt lat="44.36354" lon="3.41617">
        <ele>577</ele>
        <time>2020-01-04T21:15:42Z</time>
      </trkpt>
      <trkpt lat="44.36346" lon="3.41613">
        <ele>578</ele>
        <time>2020-01-04T21:15:44Z</time>
      </trkpt>
      <trkpt lat="44.36365" lon="3.41604">
        <ele>571</ele>
        <time>2020-01-04T21:15:49Z</time>
      </trkpt>
      <trkpt lat="44.36284" lon="3.41587">
        <ele>577</ele>
        <time>2020-01-04T21:16:08Z</time>
      </trkpt>
      <trkpt lat="44.36262" lon="3.41576">
        <ele>574</ele>
        <time>2020-01-04T21:16:13Z</time>
      </trkpt>
      <trkpt lat="44.3623" lon="3.41568">
        <ele>576</ele>
        <time>2020-01-04T21:16:21Z</time>
      </trkpt>
      <trkpt lat="44.36224" lon="3.41557">
        <ele>573</ele>
        <time>2020-01-04T21:16:23Z</time>
      </trkpt>
      <trkpt lat="44.36236" lon="3.41555">
        <ele>568</ele>
        <time>2020-01-04T21:16:26Z</time>
      </trkpt>
      <trkpt lat="44.36221" lon="3.41529">
        <ele>561</ele>
        <time>2020-01-04T21:16:32Z</time>
      </trkpt>
      <trkpt lat="44.36228" lon="3.41525">
        <ele>557</ele>
        <time>2020-01-04T21:16:34Z</time>
      </trkpt>
      <trkpt lat="44.36245" lon="3.41522">
        <ele>550</ele>
        <time>2020-01-04T21:16:38Z</time>
      </trkpt>
      <trkpt lat="44.36251" lon="3.41527">
        <ele>551</ele>
        <time>2020-01-04T21:16:39Z</time>
      </trkpt>
      <trkpt lat="44.36273" lon="3.41512">
        <ele>544</ele>
        <time>2020-01-04T21:16:45Z</time>
      </trkpt>
      <trkpt lat="44.36303" lon="3.41499">
        <ele>538</ele>
        <time>2020-01-04T21:16:52Z</time>
      </trkpt>
      <trkpt lat="44.36322" lon="3.41486">
        <ele>533</ele>
        <time>2020-01-04T21:16:57Z</time>
      </trkpt>
      <trkpt lat="44.36333" lon="3.41477">
        <ele>529</ele>
        <time>2020-01-04T21:17:00Z</time>
      </trkpt>
      <trkpt lat="44.36346" lon="3.41456">
        <ele>521</ele>
        <time>2020-01-04T21:17:05Z</time>
      </trkpt>
      <trkpt lat="44.36363" lon="3.41447">
        <ele>517</ele>
        <time>2020-01-04T21:17:09Z</time>
      </trkpt>
      <trkpt lat="44.36382" lon="3.41428">
        <ele>510</ele>
        <time>2020-01-04T21:17:14Z</time>
      </trkpt>
      <trkpt lat="44.36387" lon="3.41417">
        <ele>507</ele>
        <time>2020-01-04T21:17:17Z</time>
      </trkpt>
      <trkpt lat="44.36419" lon="3.41385">
        <ele>500</ele>
        <time>2020-01-04T21:17:26Z</time>
      </trkpt>
      <trkpt lat="44.36425" lon="3.41372">
        <ele>496</ele>
        <time>2020-01-04T21:17:28Z</time>
      </trkpt>
      <trkpt lat="44.36441" lon="3.41349">
        <ele>488</ele>
        <time>2020-01-04T21:17:34Z</time>
      </trkpt>
      <trkpt lat="44.36463" lon="3.4136">
        <ele>486</ele>
        <time>2020-01-04T21:17:39Z</time>
      </trkpt>
      <trkpt lat="44.36493" lon="3.41394">
        <ele>484</ele>
        <time>2020-01-04T21:17:48Z</time>
      </trkpt>
      <trkpt lat="44.36494" lon="3.41441">
        <ele>489</ele>
        <time>2020-01-04T21:17:56Z</time>
      </trkpt>
      <trkpt lat="44.36506" lon="3.41462">
        <ele>489</ele>
        <time>2020-01-04T21:18:01Z</time>
      </trkpt>
      <trkpt lat="44.36504" lon="3.41533">
        <ele>493</ele>
        <time>2020-01-04T21:18:12Z</time>
      </trkpt>
      <trkpt lat="44.36513" lon="3.41566">
        <ele>490</ele>
        <time>2020-01-04T21:18:18Z</time>
      </trkpt>
      <trkpt lat="44.36541" lon="3.41629">
        <ele>483</ele>
        <time>2020-01-04T21:18:31Z</time>
      </trkpt>
      <trkpt lat="44.36555" lon="3.41695">
        <ele>480</ele>
        <time>2020-01-04T21:18:42Z</time>
      </trkpt>
      <trkpt lat="44.3656" lon="3.41774">
        <ele>481</ele>
        <time>2020-01-04T21:18:55Z</time>
      </trkpt>
      <trkpt lat="44.36553" lon="3.41901">
        <ele>483</ele>
        <time>2020-01-04T21:19:17Z</time>
      </trkpt>
      <trkpt lat="44.36545" lon="3.41986">
        <ele>484</ele>
        <time>2020-01-04T21:19:31Z</time>
      </trkpt>
      <trkpt lat="44.36534" lon="3.42035">
        <ele>485</ele>
        <time>2020-01-04T21:19:40Z</time>
      </trkpt>
      <trkpt lat="44.36498" lon="3.4214">
        <ele>486</ele>
        <time>2020-01-04T21:19:59Z</time>
      </trkpt>
      <trkpt lat="44.36467" lon="3.4225">
        <ele>499</ele>
        <time>2020-01-04T21:20:19Z</time>
      </trkpt>
      <trkpt lat="44.36445" lon="3.42313">
        <ele>514</ele>
        <time>2020-01-04T21:20:30Z</time>
      </trkpt>
      <trkpt lat="44.36433" lon="3.42358">
        <ele>518</ele>
        <time>2020-01-04T21:20:39Z</time>
      </trkpt>
      <trkpt lat="44.36434" lon="3.42431">
        <ele>508</ele>
        <time>2020-01-04T21:20:51Z</time>
      </trkpt>
      <trkpt lat="44.36441" lon="3.4251">
        <ele>501</ele>
        <time>2020-01-04T21:21:04Z</time>
      </trkpt>
      <trkpt lat="44.36461" lon="3.42632">
        <ele>489</ele>
        <time>2020-01-04T21:21:25Z</time>
      </trkpt>
      <trkpt lat="44.36469" lon="3.42658">
        <ele>486</ele>
        <time>2020-01-04T21:21:30Z</time>
      </trkpt>
      <trkpt lat="44.36473" lon="3.42696">
        <ele>486</ele>
        <time>2020-01-04T21:21:36Z</time>
      </trkpt>
      <trkpt lat="44.3653" lon="3.42909">
        <ele>485</ele>
        <time>2020-01-04T21:22:14Z</time>
      </trkpt>
      <trkpt lat="44.36568" lon="3.43031">
        <ele>482</ele>
        <time>2020-01-04T21:22:36Z</time>
      </trkpt>
      <trkpt lat="44.36572" lon="3.4305">
        <ele>481</ele>
        <time>2020-01-04T21:22:40Z</time>
      </trkpt>
      <trkpt lat="44.36571" lon="3.43075">
        <ele>483</ele>
        <time>2020-01-04T21:22:44Z</time>
      </trkpt>
      <trkpt lat="44.36576" lon="3.4309">
        <ele>482</ele>
        <time>2020-01-04T21:22:46Z</time>
      </trkpt>
      <trkpt lat="44.36584" lon="3.43104">
        <ele>479</ele>
        <time>2020-01-04T21:22:49Z</time>
      </trkpt>
      <trkpt lat="44.36592" lon="3.43143">
        <ele>479</ele>
        <time>2020-01-04T21:22:56Z</time>
      </trkpt>
      <trkpt lat="44.36589" lon="3.43175">
        <ele>479</ele>
        <time>2020-01-04T21:23:02Z</time>
      </trkpt>
      <trkpt lat="44.3658" lon="3.4322">
        <ele>477</ele>
        <time>2020-01-04T21:23:09Z</time>
      </trkpt>
      <trkpt lat="44.36557" lon="3.43284">
        <ele>481</ele>
        <time>2020-01-04T21:23:21Z</time>
      </trkpt>
      <trkpt lat="44.36549" lon="3.43301">
        <ele>481</ele>
        <time>2020-01-04T21:23:25Z</time>
      </trkpt>
      <trkpt lat="44.3652" lon="3.43335">
        <ele>482</ele>
        <time>2020-01-04T21:23:34Z</time>
      </trkpt>
      <trkpt lat="44.36462" lon="3.43387">
        <ele>482</ele>
        <time>2020-01-04T21:23:50Z</time>
      </trkpt>
      <trkpt lat="44.36417" lon="3.43417">
        <ele>478</ele>
        <time>2020-01-04T21:24:01Z</time>
      </trkpt>
      <trkpt lat="44.36389" lon="3.43432">
        <ele>480</ele>
        <time>2020-01-04T21:24:08Z</time>
      </trkpt>
      <trkpt lat="44.3638" lon="3.43434">
        <ele>481</ele>
        <time>2020-01-04T21:24:10Z</time>
      </trkpt>
      <trkpt lat="44.36305" lon="3.43431">
        <ele>481</ele>
        <time>2020-01-04T21:24:28Z</time>
      </trkpt>
      <trkpt lat="44.36239" lon="3.43416">
        <ele>478</ele>
        <time>2020-01-04T21:24:44Z</time>
      </trkpt>
      <trkpt lat="44.3617" lon="3.43411">
        <ele>479</ele>
        <time>2020-01-04T21:25:00Z</time>
      </trkpt>
      <trkpt lat="44.36131" lon="3.43402">
        <ele>480</ele>
        <time>2020-01-04T21:25:09Z</time>
      </trkpt>
      <trkpt lat="44.36101" lon="3.43411">
        <ele>478</ele>
        <time>2020-01-04T21:25:16Z</time>
      </trkpt>
      <trkpt lat="44.35924" lon="3.43424">
        <ele>478</ele>
        <time>2020-01-04T21:25:58Z</time>
      </trkpt>
      <trkpt lat="44.35871" lon="3.43444">
        <ele>485</ele>
        <time>2020-01-04T21:26:10Z</time>
      </trkpt>
      <trkpt lat="44.35814" lon="3.43472">
        <ele>491</ele>
        <time>2020-01-04T21:26:24Z</time>
      </trkpt>
      <trkpt lat="44.35779" lon="3.43494">
        <ele>493</ele>
        <time>2020-01-04T21:26:33Z</time>
      </trkpt>
      <trkpt lat="44.35694" lon="3.43577">
        <ele>495</ele>
        <time>2020-01-04T21:26:58Z</time>
      </trkpt>
      <trkpt lat="44.35667" lon="3.43618">
        <ele>493</ele>
        <time>2020-01-04T21:27:07Z</time>
      </trkpt>
      <trkpt lat="44.35658" lon="3.43662">
        <ele>491</ele>
        <time>2020-01-04T21:27:15Z</time>
      </trkpt>
      <trkpt lat="44.35653" lon="3.43716">
        <ele>493</ele>
        <time>2020-01-04T21:27:24Z</time>
      </trkpt>
      <trkpt lat="44.35669" lon="3.43865">
        <ele>487</ele>
        <time>2020-01-04T21:27:49Z</time>
      </trkpt>
      <trkpt lat="44.35678" lon="3.439">
        <ele>490</ele>
        <time>2020-01-04T21:27:55Z</time>
      </trkpt>
      <trkpt lat="44.3568" lon="3.43918">
        <ele>491</ele>
        <time>2020-01-04T21:27:58Z</time>
      </trkpt>
      <trkpt lat="44.35687" lon="3.43934">
        <ele>492</ele>
        <time>2020-01-04T21:28:01Z</time>
      </trkpt>
      <trkpt lat="44.35724" lon="3.44102">
        <ele>496</ele>
        <time>2020-01-04T21:28:31Z</time>
      </trkpt>
      <trkpt lat="44.35772" lon="3.44222">
        <ele>492</ele>
        <time>2020-01-04T21:28:54Z</time>
      </trkpt>
      <trkpt lat="44.35795" lon="3.44365">
        <ele>499</ele>
        <time>2020-01-04T21:29:18Z</time>
      </trkpt>
      <trkpt lat="44.35795" lon="3.44399">
        <ele>500</ele>
        <time>2020-01-04T21:29:24Z</time>
      </trkpt>
      <trkpt lat="44.35788" lon="3.44444">
        <ele>499</ele>
        <time>2020-01-04T21:29:31Z</time>
      </trkpt>
      <trkpt lat="44.35774" lon="3.4447">
        <ele>498</ele>
        <time>2020-01-04T21:29:37Z</time>
      </trkpt>
      <trkpt lat="44.35741" lon="3.44486">
        <ele>500</ele>
        <time>2020-01-04T21:29:45Z</time>
      </trkpt>
      <trkpt lat="44.35713" lon="3.44491">
        <ele>502</ele>
        <time>2020-01-04T21:29:52Z</time>
      </trkpt>
      <trkpt lat="44.35698" lon="3.44499">
        <ele>500</ele>
        <time>2020-01-04T21:29:55Z</time>
      </trkpt>
      <trkpt lat="44.35676" lon="3.44506">
        <ele>500</ele>
        <time>2020-01-04T21:30:01Z</time>
      </trkpt>
      <trkpt lat="44.35563" lon="3.44535">
        <ele>499</ele>
        <time>2020-01-04T21:30:27Z</time>
      </trkpt>
      <trkpt lat="44.35542" lon="3.44538">
        <ele>499</ele>
        <time>2020-01-04T21:30:32Z</time>
      </trkpt>
      <trkpt lat="44.35527" lon="3.44537">
        <ele>501</ele>
        <time>2020-01-04T21:30:36Z</time>
      </trkpt>
      <trkpt lat="44.35486" lon="3.4454">
        <ele>503</ele>
        <time>2020-01-04T21:30:45Z</time>
      </trkpt>
      <trkpt lat="44.35469" lon="3.44538">
        <ele>506</ele>
        <time>2020-01-04T21:30:49Z</time>
      </trkpt>
      <trkpt lat="44.35426" lon="3.4456">
        <ele>502</ele>
        <time>2020-01-04T21:31:00Z</time>
      </trkpt>
      <trkpt lat="44.35412" lon="3.44562">
        <ele>503</ele>
        <time>2020-01-04T21:31:03Z</time>
      </trkpt>
      <trkpt lat="44.35398" lon="3.44569">
        <ele>503</ele>
        <time>2020-01-04T21:31:07Z</time>
      </trkpt>
      <trkpt lat="44.35361" lon="3.44578">
        <ele>507</ele>
        <time>2020-01-04T21:31:16Z</time>
      </trkpt>
      <trkpt lat="44.35338" lon="3.44591">
        <ele>507</ele>
        <time>2020-01-04T21:31:21Z</time>
      </trkpt>
      <trkpt lat="44.35309" lon="3.44603">
        <ele>516</ele>
        <time>2020-01-04T21:31:28Z</time>
      </trkpt>
      <trkpt lat="44.35277" lon="3.44635">
        <ele>517</ele>
        <time>2020-01-04T21:31:38Z</time>
      </trkpt>
      <trkpt lat="44.35263" lon="3.44642">
        <ele>520</ele>
        <time>2020-01-04T21:31:41Z</time>
      </trkpt>
      <trkpt lat="44.35211" lon="3.4469">
        <ele>530</ele>
        <time>2020-01-04T21:31:56Z</time>
      </trkpt>
      <trkpt lat="44.35202" lon="3.44711">
        <ele>527</ele>
        <time>2020-01-04T21:32:00Z</time>
      </trkpt>
      <trkpt lat="44.35186" lon="3.44761">
        <ele>520</ele>
        <time>2020-01-04T21:32:09Z</time>
      </trkpt>
      <trkpt lat="44.35172" lon="3.44861">
        <ele>518</ele>
        <time>2020-01-04T21:32:26Z</time>
      </trkpt>
      <trkpt lat="44.35167" lon="3.4488">
        <ele>520</ele>
        <time>2020-01-04T21:32:29Z</time>
      </trkpt>
      <trkpt lat="44.35163" lon="3.4492">
        <ele>523</ele>
        <time>2020-01-04T21:32:36Z</time>
      </trkpt>
      <trkpt lat="44.35164" lon="3.44925">
        <ele>523</ele>
        <time>2020-01-04T21:32:37Z</time>
      </trkpt>
      <trkpt lat="44.35178" lon="3.44945">
        <ele>519</ele>
        <time>2020-01-04T21:32:42Z</time>
      </trkpt>
      <trkpt lat="44.35181" lon="3.44956">
        <ele>519</ele>
        <time>2020-01-04T21:32:44Z</time>
      </trkpt>
      <trkpt lat="44.35199" lon="3.45066">
        <ele>521</ele>
        <time>2020-01-04T21:33:02Z</time>
      </trkpt>
      <trkpt lat="44.35214" lon="3.45106">
        <ele>516</ele>
        <time>2020-01-04T21:33:10Z</time>
      </trkpt>
      <trkpt lat="44.3522" lon="3.45175">
        <ele>514</ele>
        <time>2020-01-04T21:33:22Z</time>
      </trkpt>
      <trkpt lat="44.35189" lon="3.45325">
        <ele>503</ele>
        <time>2020-01-04T21:33:48Z</time>
      </trkpt>
      <trkpt lat="44.35168" lon="3.4535">
        <ele>504</ele>
        <time>2020-01-04T21:33:54Z</time>
      </trkpt>
      <trkpt lat="44.35118" lon="3.45399">
        <ele>508</ele>
        <time>2020-01-04T21:34:08Z</time>
      </trkpt>
      <trkpt lat="44.35098" lon="3.45426">
        <ele>505</ele>
        <time>2020-01-04T21:34:15Z</time>
      </trkpt>
      <trkpt lat="44.35086" lon="3.45449">
        <ele>502</ele>
        <time>2020-01-04T21:34:20Z</time>
      </trkpt>
      <trkpt lat="44.35071" lon="3.45466">
        <ele>502</ele>
        <time>2020-01-04T21:34:24Z</time>
      </trkpt>
      <trkpt lat="44.35061" lon="3.45482">
        <ele>501</ele>
        <time>2020-01-04T21:34:28Z</time>
      </trkpt>
      <trkpt lat="44.34999" lon="3.4564">
        <ele>493</ele>
        <time>2020-01-04T21:34:58Z</time>
      </trkpt>
      <trkpt lat="44.34973" lon="3.45714">
        <ele>491</ele>
        <time>2020-01-04T21:35:11Z</time>
      </trkpt>
      <trkpt lat="44.34893" lon="3.45857">
        <ele>492</ele>
        <time>2020-01-04T21:35:42Z</time>
      </trkpt>
      <trkpt lat="44.34827" lon="3.45958">
        <ele>491</ele>
        <time>2020-01-04T21:36:05Z</time>
      </trkpt>
      <trkpt lat="44.34765" lon="3.46045">
        <ele>495</ele>
        <time>2020-01-04T21:36:25Z</time>
      </trkpt>
      <trkpt lat="44.34703" lon="3.46145">
        <ele>493</ele>
        <time>2020-01-04T21:36:47Z</time>
      </trkpt>
      <trkpt lat="44.3463" lon="3.46245">
        <ele>491</ele>
        <time>2020-01-04T21:37:11Z</time>
      </trkpt>
      <trkpt lat="44.34566" lon="3.46311">
        <ele>487</ele>
        <time>2020-01-04T21:37:30Z</time>
      </trkpt>
      <trkpt lat="44.345" lon="3.46345">
        <ele>486</ele>
        <time>2020-01-04T21:37:46Z</time>
      </trkpt>
      <trkpt lat="44.34336" lon="3.46389">
        <ele>499</ele>
        <time>2020-01-04T21:38:25Z</time>
      </trkpt>
      <trkpt lat="44.34317" lon="3.4639">
        <ele>499</ele>
        <time>2020-01-04T21:38:30Z</time>
      </trkpt>
      <trkpt lat="44.34301" lon="3.46388">
        <ele>499</ele>
        <time>2020-01-04T21:38:33Z</time>
      </trkpt>
      <trkpt lat="44.34267" lon="3.46398">
        <ele>494</ele>
        <time>2020-01-04T21:38:41Z</time>
      </trkpt>
      <trkpt lat="44.34172" lon="3.4641">
        <ele>486</ele>
        <time>2020-01-04T21:39:04Z</time>
      </trkpt>
      <trkpt lat="44.34166" lon="3.46408">
        <ele>487</ele>
        <time>2020-01-04T21:39:05Z</time>
      </trkpt>
      <trkpt lat="44.34151" lon="3.46382">
        <ele>494</ele>
        <time>2020-01-04T21:39:11Z</time>
      </trkpt>
      <trkpt lat="44.34113" lon="3.46327">
        <ele>503</ele>
        <time>2020-01-04T21:39:24Z</time>
      </trkpt>
      <trkpt lat="44.34101" lon="3.46326">
        <ele>501</ele>
        <time>2020-01-04T21:39:26Z</time>
      </trkpt>
      <trkpt lat="44.34081" lon="3.4633">
        <ele>497</ele>
        <time>2020-01-04T21:39:31Z</time>
      </trkpt>
      <trkpt lat="44.34077" lon="3.46354">
        <ele>494</ele>
        <time>2020-01-04T21:39:35Z</time>
      </trkpt>
      <trkpt lat="44.34063" lon="3.46367">
        <ele>496</ele>
        <time>2020-01-04T21:39:39Z</time>
      </trkpt>
      <trkpt lat="44.34063" lon="3.46375">
        <ele>495</ele>
        <time>2020-01-04T21:39:40Z</time>
      </trkpt>
      <trkpt lat="44.3407" lon="3.46378">
        <ele>494</ele>
        <time>2020-01-04T21:39:42Z</time>
      </trkpt>
      <trkpt lat="44.3408" lon="3.46387">
        <ele>491</ele>
        <time>2020-01-04T21:39:45Z</time>
      </trkpt>
      <trkpt lat="44.34092" lon="3.46409">
        <ele>488</ele>
        <time>2020-01-04T21:39:50Z</time>
      </trkpt>
      <trkpt lat="44.34078" lon="3.46431">
        <ele>488</ele>
        <time>2020-01-04T21:39:54Z</time>
      </trkpt>
      <trkpt lat="44.34063" lon="3.46435">
        <ele>491</ele>
        <time>2020-01-04T21:39:58Z</time>
      </trkpt>
      <trkpt lat="44.34041" lon="3.46448">
        <ele>494</ele>
        <time>2020-01-04T21:40:04Z</time>
      </trkpt>
      <trkpt lat="44.33986" lon="3.46453">
        <ele>505</ele>
        <time>2020-01-04T21:40:16Z</time>
      </trkpt>
      <trkpt lat="44.33977" lon="3.46458">
        <ele>508</ele>
        <time>2020-01-04T21:40:19Z</time>
      </trkpt>
      <trkpt lat="44.33959" lon="3.46496">
        <ele>505</ele>
        <time>2020-01-04T21:40:26Z</time>
      </trkpt>
      <trkpt lat="44.33964" lon="3.46513">
        <ele>500</ele>
        <time>2020-01-04T21:40:29Z</time>
      </trkpt>
      <trkpt lat="44.33967" lon="3.46553">
        <ele>492</ele>
        <time>2020-01-04T21:40:36Z</time>
      </trkpt>
      <trkpt lat="44.33958" lon="3.46618">
        <ele>488</ele>
        <time>2020-01-04T21:40:47Z</time>
      </trkpt>
      <trkpt lat="44.33953" lon="3.46633">
        <ele>488</ele>
        <time>2020-01-04T21:40:50Z</time>
      </trkpt>
      <trkpt lat="44.33941" lon="3.46655">
        <ele>488</ele>
        <time>2020-01-04T21:40:55Z</time>
      </trkpt>
      <trkpt lat="44.33948" lon="3.46671">
        <ele>487</ele>
        <time>2020-01-04T21:40:58Z</time>
      </trkpt>
      <trkpt lat="44.33949" lon="3.46679">
        <ele>487</ele>
        <time>2020-01-04T21:40:59Z</time>
      </trkpt>
      <trkpt lat="44.33948" lon="3.46696">
        <ele>486</ele>
        <time>2020-01-04T21:41:02Z</time>
      </trkpt>
      <trkpt lat="44.33943" lon="3.46713">
        <ele>486</ele>
        <time>2020-01-04T21:41:05Z</time>
      </trkpt>
      <trkpt lat="44.33915" lon="3.46764">
        <ele>483</ele>
        <time>2020-01-04T21:41:16Z</time>
      </trkpt>
      <trkpt lat="44.33905" lon="3.46777">
        <ele>485</ele>
        <time>2020-01-04T21:41:19Z</time>
      </trkpt>
      <trkpt lat="44.33897" lon="3.46783">
        <ele>487</ele>
        <time>2020-01-04T21:41:21Z</time>
      </trkpt>
      <trkpt lat="44.33877" lon="3.4679">
        <ele>492</ele>
        <time>2020-01-04T21:41:26Z</time>
      </trkpt>
      <trkpt lat="44.33858" lon="3.46802">
        <ele>495</ele>
        <time>2020-01-04T21:41:31Z</time>
      </trkpt>
      <trkpt lat="44.33855" lon="3.46806">
        <ele>495</ele>
        <time>2020-01-04T21:41:32Z</time>
      </trkpt>
      <trkpt lat="44.33852" lon="3.46824">
        <ele>492</ele>
        <time>2020-01-04T21:41:35Z</time>
      </trkpt>
      <trkpt lat="44.33858" lon="3.46887">
        <ele>487</ele>
        <time>2020-01-04T21:41:45Z</time>
      </trkpt>
      <trkpt lat="44.33865" lon="3.46892">
        <ele>486</ele>
        <time>2020-01-04T21:41:47Z</time>
      </trkpt>
      <trkpt lat="44.33884" lon="3.46892">
        <ele>486</ele>
        <time>2020-01-04T21:41:52Z</time>
      </trkpt>
      <trkpt lat="44.33893" lon="3.46898">
        <ele>485</ele>
        <time>2020-01-04T21:41:54Z</time>
      </trkpt>
      <trkpt lat="44.33926" lon="3.46988">
        <ele>491</ele>
        <time>2020-01-04T21:42:11Z</time>
      </trkpt>
      <trkpt lat="44.33937" lon="3.4701">
        <ele>494</ele>
        <time>2020-01-04T21:42:15Z</time>
      </trkpt>
      <trkpt lat="44.33939" lon="3.47022">
        <ele>495</ele>
        <time>2020-01-04T21:42:17Z</time>
      </trkpt>
      <trkpt lat="44.33938" lon="3.47041">
        <ele>497</ele>
        <time>2020-01-04T21:42:21Z</time>
      </trkpt>
      <trkpt lat="44.33894" lon="3.47129">
        <ele>499</ele>
        <time>2020-01-04T21:42:39Z</time>
      </trkpt>
      <trkpt lat="44.33893" lon="3.47142">
        <ele>500</ele>
        <time>2020-01-04T21:42:41Z</time>
      </trkpt>
      <trkpt lat="44.33895" lon="3.47146">
        <ele>501</ele>
        <time>2020-01-04T21:42:42Z</time>
      </trkpt>
      <trkpt lat="44.33901" lon="3.47149">
        <ele>502</ele>
        <time>2020-01-04T21:42:43Z</time>
      </trkpt>
      <trkpt lat="44.3394" lon="3.47154">
        <ele>508</ele>
        <time>2020-01-04T21:42:52Z</time>
      </trkpt>
      <trkpt lat="44.33991" lon="3.47149">
        <ele>513</ele>
        <time>2020-01-04T21:43:04Z</time>
      </trkpt>
      <trkpt lat="44.34005" lon="3.47145">
        <ele>514</ele>
        <time>2020-01-04T21:43:07Z</time>
      </trkpt>
      <trkpt lat="44.34013" lon="3.4715">
        <ele>516</ele>
        <time>2020-01-04T21:43:09Z</time>
      </trkpt>
      <trkpt lat="44.34011" lon="3.47162">
        <ele>517</ele>
        <time>2020-01-04T21:43:12Z</time>
      </trkpt>
      <trkpt lat="44.33986" lon="3.47201">
        <ele>519</ele>
        <time>2020-01-04T21:43:20Z</time>
      </trkpt>
      <trkpt lat="44.33952" lon="3.47285">
        <ele>522</ele>
        <time>2020-01-04T21:43:36Z</time>
      </trkpt>
      <trkpt lat="44.33948" lon="3.47321">
        <ele>524</ele>
        <time>2020-01-04T21:43:42Z</time>
      </trkpt>
      <trkpt lat="44.33954" lon="3.47334">
        <ele>526</ele>
        <time>2020-01-04T21:43:45Z</time>
      </trkpt>
    </trkseg>
  </trk>
</gpx>